PWSweather.com
Personal Weather Stations
Station Observations
SKYDIVEKS
Skydive Kansas, Osage City, KS 66523

Skydive KansasOsage City, KS 66523

Lat: 38.636, Lon: -95.803

Elevation: 1080

Station Type: La Crosse

http://www.skydivekansas.com

Latest ConditionsUpdated 9:41:00 AM CDT Monday, Apr 21, 2014
Currently Today's Max Today's Min Today's Average
Temperature 61.3°F16.3°C 65.7°F18.7°C 59.9°F15.5°C 61.5°F16.4°C
Dew Point 49.5°F9.7°C 49.5°F9.7°C 45.5°F7.5°C 46.7°F8.2°C
Winds 3.4 mph SW5.5 kmh SW 12.3 mph SSW19.8 kmh SSW - 3.9 mph 6.3 kmh
Wind Gusts 8.1 mph13.0 kmh 13.0 mph20.9 kmh - -
Humidity 65% 65% 53% 58%
Pressure 28.96 in980.7 mb 28.98 in981.4 mb 28.93 in979.7 mb -
Hour Temp Dew Point Humidity Winds Wind Gusts Pressure Precip Precip Rate Daily Precip Total
09:41 AM 61.3°F16.3°C 49.5°F9.7°C 65% 3.4 mph SW5.5 kmh SW 8.1 mph13.0 kmh 28.96 in980.7 mb 0.00 in0.0 mm 0.00 in/hr0.0 mm/hr 0.00 in0.0 mm
09:40 AM 61.3°F16.3°C 49.5°F9.7°C 65% 4.7 mph SW7.6 kmh SW 8.1 mph13.0 kmh 28.96 in980.7 mb 0.00 in0.0 mm 0.00 in/hr0.0 mm/hr 0.00 in0.0 mm
09:39 AM 61.2°F16.2°C 49.3°F9.6°C 65% 1.3 mph SW2.1 kmh SW 8.1 mph13.0 kmh 28.96 in980.7 mb 0.00 in0.0 mm 0.00 in/hr0.0 mm/hr 0.00 in0.0 mm
09:38 AM 61.0°F16.1°C 49.2°F9.6°C 65% 5.8 mph SW9.3 kmh SW 8.1 mph13.0 kmh 28.96 in980.7 mb 0.00 in0.0 mm 0.00 in/hr0.0 mm/hr 0.00 in0.0 mm
09:37 AM 61.0°F16.1°C 49.2°F9.6°C 65% 3.4 mph SW5.5 kmh SW 9.8 mph15.8 kmh 28.96 in980.7 mb 0.00 in0.0 mm 0.00 in/hr0.0 mm/hr 0.00 in0.0 mm
09:36 AM 61.0°F16.1°C 49.2°F9.6°C 65% 2.9 mph SW4.7 kmh SW 9.8 mph15.8 kmh 28.96 in980.7 mb 0.00 in0.0 mm 0.00 in/hr0.0 mm/hr 0.00 in0.0 mm
09:35 AM 60.6°F15.9°C 48.8°F9.3°C 65% Calm Calm 9.8 mph15.8 kmh 28.96 in980.7 mb 0.00 in0.0 mm 0.00 in/hr0.0 mm/hr 0.00 in0.0 mm
09:34 AM 60.6°F15.9°C 48.8°F9.3°C 65% 3.6 mph SW5.8 kmh SW 9.8 mph15.8 kmh 28.96 in980.7 mb 0.00 in0.0 mm 0.00 in/hr0.0 mm/hr 0.00 in0.0 mm
09:33 AM 60.6°F15.9°C 48.4°F9.1°C 64% 3.1 mph SW5.0 kmh SW 9.8 mph15.8 kmh 28.96 in980.7 mb 0.00 in0.0 mm 0.00 in/hr0.0 mm/hr 0.00 in0.0 mm
09:32 AM 60.6°F15.9°C 48.4°F9.1°C 64% 4.5 mph SW7.2 kmh SW 9.8 mph15.8 kmh 28.96 in980.7 mb 0.00 in0.0 mm 0.00 in/hr0.0 mm/hr 0.00 in0.0 mm
09:31 AM 60.4°F15.8°C 48.2°F9.0°C 64% 0.9 mph SW1.4 kmh SW 9.8 mph15.8 kmh 28.96 in980.7 mb 0.00 in0.0 mm 0.00 in/hr0.0 mm/hr 0.00 in0.0 mm
09:30 AM 60.4°F15.8°C 48.2°F9.0°C 64% 2.2 mph SW3.5 kmh SW 9.8 mph15.8 kmh 28.96 in980.7 mb 0.00 in0.0 mm 0.00 in/hr0.0 mm/hr 0.00 in0.0 mm
09:29 AM 60.4°F15.8°C 48.2°F9.0°C 64% 4.7 mph SW7.6 kmh SW 9.8 mph15.8 kmh 28.96 in980.7 mb 0.00 in0.0 mm 0.00 in/hr0.0 mm/hr 0.00 in0.0 mm
09:28 AM 60.4°F15.8°C 48.2°F9.0°C 64% 5.8 mph SW9.3 kmh SW 9.8 mph15.8 kmh 28.96 in980.7 mb 0.00 in0.0 mm 0.00 in/hr0.0 mm/hr 0.00 in0.0 mm
09:27 AM 60.4°F15.8°C 48.2°F9.0°C 64% Calm Calm 9.8 mph15.8 kmh 28.96 in980.7 mb 0.00 in0.0 mm 0.00 in/hr0.0 mm/hr 0.00 in0.0 mm
09:26 AM 60.3°F15.7°C 48.1°F8.9°C 64% 3.6 mph SW5.8 kmh SW 9.8 mph15.8 kmh 28.96 in980.7 mb 0.00 in0.0 mm 0.00 in/hr0.0 mm/hr 0.00 in0.0 mm
09:25 AM 60.1°F15.6°C 47.9°F8.8°C 64% 3.1 mph SSW5.0 kmh SSW 9.8 mph15.8 kmh 28.96 in980.7 mb 0.00 in0.0 mm 0.00 in/hr0.0 mm/hr 0.00 in0.0 mm
09:24 AM 60.3°F15.7°C 47.6°F8.7°C 63% 2.7 mph SSW4.3 kmh SSW 9.8 mph15.8 kmh 28.96 in980.7 mb 0.00 in0.0 mm 0.00 in/hr0.0 mm/hr 0.00 in0.0 mm
09:23 AM 60.1°F15.6°C 47.5°F8.6°C 63% 5.4 mph SW8.7 kmh SW 9.8 mph15.8 kmh 28.96 in980.7 mb 0.00 in0.0 mm 0.00 in/hr0.0 mm/hr 0.00 in0.0 mm
09:22 AM 60.1°F15.6°C 47.5°F8.6°C 63% 1.3 mph SSW2.1 kmh SSW 9.8 mph15.8 kmh 28.96 in980.7 mb 0.00 in0.0 mm 0.00 in/hr0.0 mm/hr 0.00 in0.0 mm
09:21 AM 60.1°F15.6°C 47.5°F8.6°C 63% 3.4 mph SSW5.5 kmh SSW 9.8 mph15.8 kmh 28.96 in980.7 mb 0.00 in0.0 mm 0.00 in/hr0.0 mm/hr 0.00 in0.0 mm
09:20 AM 60.1°F15.6°C 47.5°F8.6°C 63% 1.1 mph SSW1.8 kmh SSW 9.8 mph15.8 kmh 28.96 in980.7 mb 0.00 in0.0 mm 0.00 in/hr0.0 mm/hr 0.00 in0.0 mm
09:19 AM 60.1°F15.6°C 47.5°F8.6°C 63% 6.9 mph SSW11.1 kmh SSW 7.8 mph12.6 kmh 28.96 in980.7 mb 0.00 in0.0 mm 0.00 in/hr0.0 mm/hr 0.00 in0.0 mm
09:18 AM 60.1°F15.6°C 47.5°F8.6°C 63% 3.4 mph SSW5.5 kmh SSW 7.8 mph12.6 kmh 28.96 in980.7 mb 0.00 in0.0 mm 0.00 in/hr0.0 mm/hr 0.00 in0.0 mm
09:17 AM 60.1°F15.6°C 47.5°F8.6°C 63% 3.1 mph SSW5.0 kmh SSW 7.8 mph12.6 kmh 28.96 in980.7 mb 0.00 in0.0 mm 0.00 in/hr0.0 mm/hr 0.00 in0.0 mm
09:16 AM 60.1°F15.6°C 47.5°F8.6°C 63% 2.2 mph SSW3.5 kmh SSW 7.8 mph12.6 kmh 28.96 in980.7 mb 0.00 in0.0 mm 0.00 in/hr0.0 mm/hr 0.00 in0.0 mm
09:15 AM 59.9°F15.5°C 46.9°F8.3°C 62% 2.7 mph SSW4.3 kmh SSW 7.8 mph12.6 kmh 28.96 in980.7 mb 0.00 in0.0 mm 0.00 in/hr0.0 mm/hr 0.00 in0.0 mm
09:14 AM 60.1°F15.6°C 47.0°F8.3°C 62% 3.4 mph SSW5.5 kmh SSW 7.8 mph12.6 kmh 28.97 in981.0 mb 0.00 in0.0 mm 0.00 in/hr0.0 mm/hr 0.00 in0.0 mm
09:13 AM 60.1°F15.6°C 47.0°F8.3°C 62% 3.4 mph SSW5.5 kmh SSW 7.8 mph12.6 kmh 28.97 in981.0 mb 0.00 in0.0 mm 0.00 in/hr0.0 mm/hr 0.00 in0.0 mm
09:12 AM 59.9°F15.5°C 46.9°F8.3°C 62% 2.0 mph SW3.2 kmh SW 9.4 mph15.1 kmh 28.97 in981.0 mb 0.00 in0.0 mm 0.00 in/hr0.0 mm/hr 0.00 in0.0 mm
09:11 AM 60.1°F15.6°C 47.0°F8.3°C 62% 2.7 mph SW4.3 kmh SW 9.6 mph15.4 kmh 28.97 in981.0 mb 0.00 in0.0 mm 0.00 in/hr0.0 mm/hr 0.00 in0.0 mm
09:10 AM 60.1°F15.6°C 47.0°F8.3°C 62% 2.7 mph SW4.3 kmh SW 9.6 mph15.4 kmh 28.96 in980.7 mb 0.00 in0.0 mm 0.00 in/hr0.0 mm/hr 0.00 in0.0 mm
09:09 AM 60.1°F15.6°C 47.0°F8.3°C 62% 4.7 mph SW7.6 kmh SW 9.6 mph15.4 kmh 28.96 in980.7 mb 0.00 in0.0 mm 0.00 in/hr0.0 mm/hr 0.00 in0.0 mm
09:08 AM 59.9°F15.5°C 46.9°F8.3°C 62% 4.0 mph SW6.4 kmh SW 9.6 mph15.4 kmh 28.97 in981.0 mb 0.00 in0.0 mm 0.00 in/hr0.0 mm/hr 0.00 in0.0 mm
09:07 AM 60.1°F15.6°C 47.0°F8.3°C 62% 6.0 mph SW9.7 kmh SW 9.6 mph15.4 kmh 28.97 in981.0 mb 0.00 in0.0 mm 0.00 in/hr0.0 mm/hr 0.00 in0.0 mm
09:06 AM 60.1°F15.6°C 47.0°F8.3°C 62% 5.4 mph SW8.7 kmh SW 9.6 mph15.4 kmh 28.97 in981.0 mb 0.00 in0.0 mm 0.00 in/hr0.0 mm/hr 0.00 in0.0 mm
09:05 AM 60.1°F15.6°C 47.0°F8.3°C 62% 4.0 mph SW6.4 kmh SW 9.6 mph15.4 kmh 28.97 in981.0 mb 0.00 in0.0 mm 0.00 in/hr0.0 mm/hr 0.00 in0.0 mm
09:04 AM 59.9°F15.5°C 46.9°F8.3°C 62% 1.8 mph SW2.9 kmh SW 9.6 mph15.4 kmh 28.96 in980.7 mb 0.00 in0.0 mm 0.00 in/hr0.0 mm/hr 0.00 in0.0 mm
09:03 AM 60.1°F15.6°C 47.0°F8.3°C 62% 5.4 mph SW8.7 kmh SW 9.6 mph15.4 kmh 28.97 in981.0 mb 0.00 in0.0 mm 0.00 in/hr0.0 mm/hr 0.00 in0.0 mm
09:02 AM 60.1°F15.6°C 47.0°F8.3°C 62% 6.9 mph SW11.1 kmh SW 9.6 mph15.4 kmh 28.97 in981.0 mb 0.00 in0.0 mm 0.00 in/hr0.0 mm/hr 0.00 in0.0 mm
09:01 AM 60.1°F15.6°C 47.0°F8.3°C 62% 4.9 mph SW7.9 kmh SW 9.6 mph15.4 kmh 28.97 in981.0 mb 0.00 in0.0 mm 0.00 in/hr0.0 mm/hr 0.00 in0.0 mm
09:00 AM 60.1°F15.6°C 47.0°F8.3°C 62% 2.9 mph SW4.7 kmh SW 9.4 mph15.1 kmh 28.97 in981.0 mb 0.00 in0.0 mm 0.00 in/hr0.0 mm/hr 0.00 in0.0 mm
08:59 AM 60.1°F15.6°C 47.0°F8.3°C 62% 3.6 mph SW5.8 kmh SW 9.4 mph15.1 kmh 28.97 in981.0 mb 0.00 in0.0 mm 0.00 in/hr0.0 mm/hr 0.00 in0.0 mm
08:58 AM 60.1°F15.6°C 47.0°F8.3°C 62% 2.5 mph SW4.0 kmh SW 9.4 mph15.1 kmh 28.97 in981.0 mb 0.00 in0.0 mm 0.00 in/hr0.0 mm/hr 0.00 in0.0 mm
08:57 AM 60.1°F15.6°C 47.0°F8.3°C 62% 5.6 mph SW9.0 kmh SW 9.4 mph15.1 kmh 28.97 in981.0 mb 0.00 in0.0 mm 0.00 in/hr0.0 mm/hr 0.00 in0.0 mm
08:56 AM 60.1°F15.6°C 47.0°F8.3°C 62% 4.7 mph SW7.6 kmh SW 9.4 mph15.1 kmh 28.97 in981.0 mb 0.00 in0.0 mm 0.00 in/hr0.0 mm/hr 0.00 in0.0 mm
08:55 AM 60.1°F15.6°C 47.0°F8.3°C 62% Calm Calm 6.9 mph11.1 kmh 28.97 in981.0 mb 0.00 in0.0 mm 0.00 in/hr0.0 mm/hr 0.00 in0.0 mm
08:54 AM 60.1°F15.6°C 47.0°F8.3°C 62% 2.7 mph SW4.3 kmh SW 6.9 mph11.1 kmh 28.97 in981.0 mb 0.00 in0.0 mm 0.00 in/hr0.0 mm/hr 0.00 in0.0 mm
08:53 AM 60.1°F15.6°C 47.0°F8.3°C 62% 4.3 mph SSW6.9 kmh SSW 6.5 mph10.5 kmh 28.97 in981.0 mb 0.00 in0.0 mm 0.00 in/hr0.0 mm/hr 0.00 in0.0 mm
08:52 AM 60.1°F15.6°C 47.0°F8.3°C 62% 2.5 mph SSW4.0 kmh SSW 6.5 mph10.5 kmh 28.97 in981.0 mb 0.00 in0.0 mm 0.00 in/hr0.0 mm/hr 0.00 in0.0 mm
08:51 AM 60.1°F15.6°C 47.0°F8.3°C 62% 4.0 mph SSW6.4 kmh SSW 6.5 mph10.5 kmh 28.97 in981.0 mb 0.00 in0.0 mm 0.00 in/hr0.0 mm/hr 0.00 in0.0 mm
08:50 AM 60.1°F15.6°C 47.0°F8.3°C 62% 4.0 mph SSW6.4 kmh SSW 6.5 mph10.5 kmh 28.97 in981.0 mb 0.00 in0.0 mm 0.00 in/hr0.0 mm/hr 0.00 in0.0 mm
08:49 AM 60.1°F15.6°C 47.0°F8.3°C 62% 3.6 mph SSW5.8 kmh SSW 5.6 mph9.0 kmh 28.97 in981.0 mb 0.00 in0.0 mm 0.00 in/hr0.0 mm/hr 0.00 in0.0 mm
08:48 AM 60.1°F15.6°C 47.0°F8.3°C 62% 2.7 mph SSW4.3 kmh SSW 5.6 mph9.0 kmh 28.97 in981.0 mb 0.00 in0.0 mm 0.00 in/hr0.0 mm/hr 0.00 in0.0 mm
08:47 AM 60.1°F15.6°C 47.0°F8.3°C 62% Calm Calm 5.6 mph9.0 kmh 28.97 in981.0 mb 0.00 in0.0 mm 0.00 in/hr0.0 mm/hr 0.00 in0.0 mm
08:46 AM 60.1°F15.6°C 47.0°F8.3°C 62% Calm Calm 5.6 mph9.0 kmh 28.97 in981.0 mb 0.00 in0.0 mm 0.00 in/hr0.0 mm/hr 0.00 in0.0 mm
08:45 AM 60.1°F15.6°C 47.0°F8.3°C 62% Calm Calm 5.6 mph9.0 kmh 28.97 in981.0 mb 0.00 in0.0 mm 0.00 in/hr0.0 mm/hr 0.00 in0.0 mm
08:44 AM 60.1°F15.6°C 47.0°F8.3°C 62% 2.9 mph SSW4.7 kmh SSW 5.6 mph9.0 kmh 28.97 in981.0 mb 0.00 in0.0 mm 0.00 in/hr0.0 mm/hr 0.00 in0.0 mm
08:43 AM 60.1°F15.6°C 47.0°F8.3°C 62% 4.5 mph SSW7.2 kmh SSW 5.6 mph9.0 kmh 28.97 in981.0 mb 0.00 in0.0 mm 0.00 in/hr0.0 mm/hr 0.00 in0.0 mm
08:42 AM 60.1°F15.6°C 47.0°F8.3°C 62% 5.6 mph SW9.0 kmh SW 5.6 mph9.0 kmh 28.97 in981.0 mb 0.00 in0.0 mm 0.00 in/hr0.0 mm/hr 0.00 in0.0 mm
08:41 AM 60.1°F15.6°C 47.0°F8.3°C 62% 0.7 mph SW1.1 kmh SW 4.5 mph7.2 kmh 28.97 in981.0 mb 0.00 in0.0 mm 0.00 in/hr0.0 mm/hr 0.00 in0.0 mm
08:40 AM 60.1°F15.6°C 47.0°F8.3°C 62% Calm Calm 3.8 mph6.1 kmh 28.97 in981.0 mb 0.00 in0.0 mm 0.00 in/hr0.0 mm/hr 0.00 in0.0 mm
08:39 AM 60.1°F15.6°C 47.0°F8.3°C 62% Calm Calm 3.8 mph6.1 kmh 28.98 in981.4 mb 0.00 in0.0 mm 0.00 in/hr0.0 mm/hr 0.00 in0.0 mm
08:38 AM 60.1°F15.6°C 47.0°F8.3°C 62% Calm Calm 3.8 mph6.1 kmh 28.97 in981.0 mb 0.00 in0.0 mm 0.00 in/hr0.0 mm/hr 0.00 in0.0 mm
08:37 AM 60.1°F15.6°C 47.0°F8.3°C 62% 0.4 mph SW0.6 kmh SW 3.8 mph6.1 kmh 28.97 in981.0 mb 0.00 in0.0 mm 0.00 in/hr0.0 mm/hr 0.00 in0.0 mm
08:36 AM 60.1°F15.6°C 47.0°F8.3°C 62% Calm Calm 3.8 mph6.1 kmh 28.97 in981.0 mb 0.00 in0.0 mm 0.00 in/hr0.0 mm/hr 0.00 in0.0 mm
08:35 AM 60.1°F15.6°C 47.0°F8.3°C 62% Calm Calm 2.5 mph4.0 kmh 28.97 in981.0 mb 0.00 in0.0 mm 0.00 in/hr0.0 mm/hr 0.00 in0.0 mm
08:34 AM 60.1°F15.6°C 47.0°F8.3°C 62% Calm Calm 2.5 mph4.0 kmh 28.97 in981.0 mb 0.00 in0.0 mm 0.00 in/hr0.0 mm/hr 0.00 in0.0 mm
08:33 AM 60.1°F15.6°C 47.0°F8.3°C 62% Calm Calm 2.5 mph4.0 kmh 28.97 in981.0 mb 0.00 in0.0 mm 0.00 in/hr0.0 mm/hr 0.00 in0.0 mm
08:32 AM 60.1°F15.6°C 47.0°F8.3°C 62% Calm Calm 2.5 mph4.0 kmh 28.97 in981.0 mb 0.00 in0.0 mm 0.00 in/hr0.0 mm/hr 0.00 in0.0 mm
08:31 AM 60.1°F15.6°C 47.0°F8.3°C 62% Calm Calm 3.6 mph5.8 kmh 28.97 in981.0 mb 0.00 in0.0 mm 0.00 in/hr0.0 mm/hr 0.00 in0.0 mm
08:30 AM 60.1°F15.6°C 47.0°F8.3°C 62% 0.9 mph SSW1.4 kmh SSW 6.0 mph9.7 kmh 28.97 in981.0 mb 0.00 in0.0 mm 0.00 in/hr0.0 mm/hr 0.00 in0.0 mm
08:29 AM 60.1°F15.6°C 46.6°F8.1°C 61% Calm Calm 6.0 mph9.7 kmh 28.98 in981.4 mb 0.00 in0.0 mm 0.00 in/hr0.0 mm/hr 0.00 in0.0 mm
08:28 AM 60.1°F15.6°C 46.6°F8.1°C 61% Calm Calm 6.0 mph9.7 kmh 28.97 in981.0 mb 0.00 in0.0 mm 0.00 in/hr0.0 mm/hr 0.00 in0.0 mm
08:27 AM 60.1°F15.6°C 46.6°F8.1°C 61% Calm Calm 6.0 mph9.7 kmh 28.97 in981.0 mb 0.00 in0.0 mm 0.00 in/hr0.0 mm/hr 0.00 in0.0 mm
08:26 AM 60.1°F15.6°C 46.6°F8.1°C 61% Calm Calm 6.0 mph9.7 kmh 28.97 in981.0 mb 0.00 in0.0 mm 0.00 in/hr0.0 mm/hr 0.00 in0.0 mm
08:25 AM 60.1°F15.6°C 46.6°F8.1°C 61% Calm Calm 6.0 mph9.7 kmh 28.97 in981.0 mb 0.00 in0.0 mm 0.00 in/hr0.0 mm/hr 0.00 in0.0 mm
08:24 AM 60.1°F15.6°C 46.6°F8.1°C 61% Calm Calm 6.0 mph9.7 kmh 28.97 in981.0 mb 0.00 in0.0 mm 0.00 in/hr0.0 mm/hr 0.00 in0.0 mm
08:23 AM 60.1°F15.6°C 46.6°F8.1°C 61% Calm Calm 6.0 mph9.7 kmh 28.97 in981.0 mb 0.00 in0.0 mm 0.00 in/hr0.0 mm/hr 0.00 in0.0 mm
08:22 AM 60.1°F15.6°C 46.6°F8.1°C 61% Calm Calm 6.0 mph9.7 kmh 28.97 in981.0 mb 0.00 in0.0 mm 0.00 in/hr0.0 mm/hr 0.00 in0.0 mm
08:21 AM 60.1°F15.6°C 46.6°F8.1°C 61% 2.2 mph SW3.5 kmh SW 6.0 mph9.7 kmh 28.97 in981.0 mb 0.00 in0.0 mm 0.00 in/hr0.0 mm/hr 0.00 in0.0 mm
08:20 AM 60.1°F15.6°C 46.6°F8.1°C 61% 4.9 mph SW7.9 kmh SW 5.4 mph8.7 kmh 28.97 in981.0 mb 0.00 in0.0 mm 0.00 in/hr0.0 mm/hr 0.00 in0.0 mm
08:19 AM 60.1°F15.6°C 46.6°F8.1°C 61% 1.3 mph SW2.1 kmh SW 7.2 mph11.6 kmh 28.97 in981.0 mb 0.00 in0.0 mm 0.00 in/hr0.0 mm/hr 0.00 in0.0 mm
08:18 AM 60.1°F15.6°C 46.6°F8.1°C 61% 2.9 mph SW4.7 kmh SW 7.2 mph11.6 kmh 28.97 in981.0 mb 0.00 in0.0 mm 0.00 in/hr0.0 mm/hr 0.00 in0.0 mm
08:17 AM 60.1°F15.6°C 46.6°F8.1°C 61% 4.0 mph SW6.4 kmh SW 7.2 mph11.6 kmh 28.97 in981.0 mb 0.00 in0.0 mm 0.00 in/hr0.0 mm/hr 0.00 in0.0 mm
08:16 AM 60.1°F15.6°C 46.6°F8.1°C 61% 2.7 mph SW4.3 kmh SW 7.2 mph11.6 kmh 28.97 in981.0 mb 0.00 in0.0 mm 0.00 in/hr0.0 mm/hr 0.00 in0.0 mm
08:15 AM 60.3°F15.7°C 46.8°F8.2°C 61% 1.1 mph SW1.8 kmh SW 7.2 mph11.6 kmh 28.97 in981.0 mb 0.00 in0.0 mm 0.00 in/hr0.0 mm/hr 0.00 in0.0 mm
08:14 AM 60.1°F15.6°C 46.6°F8.1°C 61% Calm Calm 7.2 mph11.6 kmh 28.97 in981.0 mb 0.00 in0.0 mm 0.00 in/hr0.0 mm/hr 0.00 in0.0 mm
08:13 AM 60.3°F15.7°C 46.8°F8.2°C 61% Calm Calm 7.2 mph11.6 kmh 28.97 in981.0 mb 0.00 in0.0 mm 0.00 in/hr0.0 mm/hr 0.00 in0.0 mm
08:12 AM 60.3°F15.7°C 46.8°F8.2°C 61% Calm Calm 7.2 mph11.6 kmh 28.97 in981.0 mb 0.00 in0.0 mm 0.00 in/hr0.0 mm/hr 0.00 in0.0 mm
08:11 AM 60.3°F15.7°C 46.8°F8.2°C 61% Calm Calm 7.2 mph11.6 kmh 28.97 in981.0 mb 0.00 in0.0 mm 0.00 in/hr0.0 mm/hr 0.00 in0.0 mm
08:10 AM 60.1°F15.6°C 46.6°F8.1°C 61% 7.2 mph SW11.6 kmh SW 7.2 mph11.6 kmh 28.97 in981.0 mb 0.00 in0.0 mm 0.00 in/hr0.0 mm/hr 0.00 in0.0 mm
08:09 AM 60.1°F15.6°C 46.6°F8.1°C 61% 4.5 mph SW7.2 kmh SW 6.7 mph10.8 kmh 28.97 in981.0 mb 0.00 in0.0 mm 0.00 in/hr0.0 mm/hr 0.00 in0.0 mm
08:08 AM 60.3°F15.7°C 46.8°F8.2°C 61% 0.9 mph WSW1.4 kmh WSW 6.7 mph10.8 kmh 28.97 in981.0 mb 0.00 in0.0 mm 0.00 in/hr0.0 mm/hr 0.00 in0.0 mm
08:07 AM 60.3°F15.7°C 46.8°F8.2°C 61% Calm Calm 6.7 mph10.8 kmh 28.97 in981.0 mb 0.00 in0.0 mm 0.00 in/hr0.0 mm/hr 0.00 in0.0 mm
08:06 AM 60.3°F15.7°C 46.8°F8.2°C 61% Calm Calm 9.8 mph15.8 kmh 28.97 in981.0 mb 0.00 in0.0 mm 0.00 in/hr0.0 mm/hr 0.00 in0.0 mm
08:05 AM 60.3°F15.7°C 46.8°F8.2°C 61% 3.6 mph SW5.8 kmh SW 9.8 mph15.8 kmh 28.97 in981.0 mb 0.00 in0.0 mm 0.00 in/hr0.0 mm/hr 0.00 in0.0 mm
08:04 AM 60.3°F15.7°C 46.8°F8.2°C 61% 2.0 mph SW3.2 kmh SW 9.8 mph15.8 kmh 28.97 in981.0 mb 0.00 in0.0 mm 0.00 in/hr0.0 mm/hr 0.00 in0.0 mm
08:03 AM 60.3°F15.7°C 46.8°F8.2°C 61% Calm Calm 9.8 mph15.8 kmh 28.97 in981.0 mb 0.00 in0.0 mm 0.00 in/hr0.0 mm/hr 0.00 in0.0 mm
08:02 AM 60.3°F15.7°C 46.8°F8.2°C 61% Calm Calm 9.8 mph15.8 kmh 28.97 in981.0 mb 0.00 in0.0 mm 0.00 in/hr0.0 mm/hr 0.00 in0.0 mm
08:01 AM 60.3°F15.7°C 46.8°F8.2°C 61% Calm Calm 9.8 mph15.8 kmh 28.97 in981.0 mb 0.00 in0.0 mm 0.00 in/hr0.0 mm/hr 0.00 in0.0 mm
08:00 AM 60.3°F15.7°C 46.8°F8.2°C 61% 1.1 mph SW1.8 kmh SW 9.8 mph15.8 kmh 28.97 in981.0 mb 0.00 in0.0 mm 0.00 in/hr0.0 mm/hr 0.00 in0.0 mm
07:59 AM 60.3°F15.7°C 46.8°F8.2°C 61% 1.1 mph SW1.8 kmh SW 9.8 mph15.8 kmh 28.97 in981.0 mb 0.00 in0.0 mm 0.00 in/hr0.0 mm/hr 0.00 in0.0 mm
07:58 AM 60.3°F15.7°C 46.8°F8.2°C 61% 0.7 mph SW1.1 kmh SW 9.8 mph15.8 kmh 28.97 in981.0 mb 0.00 in0.0 mm 0.00 in/hr0.0 mm/hr 0.00 in0.0 mm
07:57 AM 60.3°F15.7°C 46.8°F8.2°C 61% 6.7 mph SW10.8 kmh SW 9.8 mph15.8 kmh 28.97 in981.0 mb 0.00 in0.0 mm 0.00 in/hr0.0 mm/hr 0.00 in0.0 mm
07:56 AM 60.3°F15.7°C 46.8°F8.2°C 61% 8.1 mph SW13.0 kmh SW 9.6 mph15.4 kmh 28.97 in981.0 mb 0.00 in0.0 mm 0.00 in/hr0.0 mm/hr 0.00 in0.0 mm
07:55 AM 60.3°F15.7°C 46.8°F8.2°C 61% 2.5 mph SW4.0 kmh SW 9.6 mph15.4 kmh 28.97 in981.0 mb 0.00 in0.0 mm 0.00 in/hr0.0 mm/hr 0.00 in0.0 mm
07:54 AM 60.1°F15.6°C 46.6°F8.1°C 61% 6.0 mph SW9.7 kmh SW 9.6 mph15.4 kmh 28.96 in980.7 mb 0.00 in0.0 mm 0.00 in/hr0.0 mm/hr 0.00 in0.0 mm
07:53 AM 60.3°F15.7°C 46.8°F8.2°C 61% 7.2 mph SW11.6 kmh SW 9.6 mph15.4 kmh 28.96 in980.7 mb 0.00 in0.0 mm 0.00 in/hr0.0 mm/hr 0.00 in0.0 mm
07:52 AM 60.1°F15.6°C 46.6°F8.1°C 61% 2.9 mph SW4.7 kmh SW 9.6 mph15.4 kmh 28.96 in980.7 mb 0.00 in0.0 mm 0.00 in/hr0.0 mm/hr 0.00 in0.0 mm
07:51 AM 60.1°F15.6°C 46.6°F8.1°C 61% 1.1 mph SW1.8 kmh SW 9.6 mph15.4 kmh 28.96 in980.7 mb 0.00 in0.0 mm 0.00 in/hr0.0 mm/hr 0.00 in0.0 mm
07:50 AM 60.3°F15.7°C 46.8°F8.2°C 61% 9.2 mph SW14.8 kmh SW 9.2 mph14.8 kmh 28.96 in980.7 mb 0.00 in0.0 mm 0.00 in/hr0.0 mm/hr 0.00 in0.0 mm
07:49 AM 60.1°F15.6°C 46.6°F8.1°C 61% 3.4 mph SW5.5 kmh SW 7.2 mph11.6 kmh 28.96 in980.7 mb 0.00 in0.0 mm 0.00 in/hr0.0 mm/hr 0.00 in0.0 mm
07:48 AM 60.1°F15.6°C 46.6°F8.1°C 61% 0.7 mph SW1.1 kmh SW 7.2 mph11.6 kmh 28.96 in980.7 mb 0.00 in0.0 mm 0.00 in/hr0.0 mm/hr 0.00 in0.0 mm
07:47 AM 60.1°F15.6°C 46.6°F8.1°C 61% 1.3 mph SSW2.1 kmh SSW 9.4 mph15.1 kmh 28.96 in980.7 mb 0.00 in0.0 mm 0.00 in/hr0.0 mm/hr 0.00 in0.0 mm
07:46 AM 60.3°F15.7°C 46.8°F8.2°C 61% 5.4 mph SW8.7 kmh SW 9.4 mph15.1 kmh 28.96 in980.7 mb 0.00 in0.0 mm 0.00 in/hr0.0 mm/hr 0.00 in0.0 mm
07:45 AM 60.1°F15.6°C 46.6°F8.1°C 61% 1.8 mph SW2.9 kmh SW 9.4 mph15.1 kmh 28.96 in980.7 mb 0.00 in0.0 mm 0.00 in/hr0.0 mm/hr 0.00 in0.0 mm
07:44 AM 60.3°F15.7°C 46.8°F8.2°C 61% 5.6 mph SW9.0 kmh SW 9.4 mph15.1 kmh 28.96 in980.7 mb 0.00 in0.0 mm 0.00 in/hr0.0 mm/hr 0.00 in0.0 mm
07:43 AM 60.1°F15.6°C 46.6°F8.1°C 61% 2.5 mph SW4.0 kmh SW 9.4 mph15.1 kmh 28.96 in980.7 mb 0.00 in0.0 mm 0.00 in/hr0.0 mm/hr 0.00 in0.0 mm
07:42 AM 60.1°F15.6°C 46.6°F8.1°C 61% 2.9 mph SW4.7 kmh SW 9.4 mph15.1 kmh 28.96 in980.7 mb 0.00 in0.0 mm 0.00 in/hr0.0 mm/hr 0.00 in0.0 mm
07:41 AM 60.1°F15.6°C 46.6°F8.1°C 61% 4.3 mph SW6.9 kmh SW 9.4 mph15.1 kmh 28.96 in980.7 mb 0.00 in0.0 mm 0.00 in/hr0.0 mm/hr 0.00 in0.0 mm
07:40 AM 60.1°F15.6°C 46.6°F8.1°C 61% 3.8 mph SW6.1 kmh SW 9.4 mph15.1 kmh 28.96 in980.7 mb 0.00 in0.0 mm 0.00 in/hr0.0 mm/hr 0.00 in0.0 mm
07:39 AM 60.1°F15.6°C 46.6°F8.1°C 61% 4.0 mph SW6.4 kmh SW 9.4 mph15.1 kmh 28.96 in980.7 mb 0.00 in0.0 mm 0.00 in/hr0.0 mm/hr 0.00 in0.0 mm
07:38 AM 60.1°F15.6°C 46.6°F8.1°C 61% 5.6 mph SW9.0 kmh SW 9.4 mph15.1 kmh 28.96 in980.7 mb 0.00 in0.0 mm 0.00 in/hr0.0 mm/hr 0.00 in0.0 mm
07:37 AM 60.1°F15.6°C 46.6°F8.1°C 61% 5.1 mph SW8.2 kmh SW 7.2 mph11.6 kmh 28.96 in980.7 mb 0.00 in0.0 mm 0.00 in/hr0.0 mm/hr 0.00 in0.0 mm
07:36 AM 60.1°F15.6°C 46.6°F8.1°C 61% 4.5 mph SW7.2 kmh SW 7.2 mph11.6 kmh 28.96 in980.7 mb 0.00 in0.0 mm 0.00 in/hr0.0 mm/hr 0.00 in0.0 mm
07:35 AM 60.1°F15.6°C 46.6°F8.1°C 61% 5.4 mph SW8.7 kmh SW 7.2 mph11.6 kmh 28.96 in980.7 mb 0.00 in0.0 mm 0.00 in/hr0.0 mm/hr 0.00 in0.0 mm
07:34 AM 60.1°F15.6°C 46.6°F8.1°C 61% Calm Calm 7.2 mph11.6 kmh 28.96 in980.7 mb 0.00 in0.0 mm 0.00 in/hr0.0 mm/hr 0.00 in0.0 mm
07:33 AM 60.1°F15.6°C 46.6°F8.1°C 61% 3.4 mph SW5.5 kmh SW 7.2 mph11.6 kmh 28.96 in980.7 mb 0.00 in0.0 mm 0.00 in/hr0.0 mm/hr 0.00 in0.0 mm
07:32 AM 60.1°F15.6°C 46.6°F8.1°C 61% 1.1 mph SW1.8 kmh SW 7.2 mph11.6 kmh 28.95 in980.4 mb 0.00 in0.0 mm 0.00 in/hr0.0 mm/hr 0.00 in0.0 mm
07:31 AM 60.1°F15.6°C 46.6°F8.1°C 61% 4.9 mph SW7.9 kmh SW 7.2 mph11.6 kmh 28.96 in980.7 mb 0.00 in0.0 mm 0.00 in/hr0.0 mm/hr 0.00 in0.0 mm
07:30 AM 60.1°F15.6°C 46.6°F8.1°C 61% Calm Calm 7.4 mph11.9 kmh 28.96 in980.7 mb 0.00 in0.0 mm 0.00 in/hr0.0 mm/hr 0.00 in0.0 mm
07:29 AM 60.1°F15.6°C 46.6°F8.1°C 61% 3.6 mph SW5.8 kmh SW 7.4 mph11.9 kmh 28.96 in980.7 mb 0.00 in0.0 mm 0.00 in/hr0.0 mm/hr 0.00 in0.0 mm
07:28 AM 60.1°F15.6°C 46.6°F8.1°C 61% 1.6 mph SW2.6 kmh SW 7.4 mph11.9 kmh 28.96 in980.7 mb 0.00 in0.0 mm 0.00 in/hr0.0 mm/hr 0.00 in0.0 mm
07:27 AM 60.1°F15.6°C 46.6°F8.1°C 61% Calm Calm 7.4 mph11.9 kmh 28.96 in980.7 mb 0.00 in0.0 mm 0.00 in/hr0.0 mm/hr 0.00 in0.0 mm
07:26 AM 60.1°F15.6°C 46.6°F8.1°C 61% 2.2 mph SW3.5 kmh SW 7.4 mph11.9 kmh 28.96 in980.7 mb 0.00 in0.0 mm 0.00 in/hr0.0 mm/hr 0.00 in0.0 mm
07:25 AM 60.1°F15.6°C 46.6°F8.1°C 61% Calm Calm 9.2 mph14.8 kmh 28.96 in980.7 mb 0.00 in0.0 mm 0.00 in/hr0.0 mm/hr 0.00 in0.0 mm
07:24 AM 60.1°F15.6°C 46.6°F8.1°C 61% Calm Calm 9.2 mph14.8 kmh 28.96 in980.7 mb 0.00 in0.0 mm 0.00 in/hr0.0 mm/hr 0.00 in0.0 mm
07:23 AM 59.9°F15.5°C 46.5°F8.1°C 61% 0.4 mph SW0.6 kmh SW 9.2 mph14.8 kmh 28.96 in980.7 mb 0.00 in0.0 mm 0.00 in/hr0.0 mm/hr 0.00 in0.0 mm
07:22 AM 59.9°F15.5°C 46.5°F8.1°C 61% 4.5 mph SW7.2 kmh SW 9.2 mph14.8 kmh 28.95 in980.4 mb 0.00 in0.0 mm 0.00 in/hr0.0 mm/hr 0.00 in0.0 mm
07:21 AM 60.1°F15.6°C 46.6°F8.1°C 61% 6.5 mph SW10.5 kmh SW 9.2 mph14.8 kmh 28.95 in980.4 mb 0.00 in0.0 mm 0.00 in/hr0.0 mm/hr 0.00 in0.0 mm
07:20 AM 60.1°F15.6°C 46.6°F8.1°C 61% 2.5 mph SW4.0 kmh SW 9.2 mph14.8 kmh 28.95 in980.4 mb 0.00 in0.0 mm 0.00 in/hr0.0 mm/hr 0.00 in0.0 mm
07:19 AM 59.9°F15.5°C 46.5°F8.1°C 61% 4.0 mph SW6.4 kmh SW 9.2 mph14.8 kmh 28.95 in980.4 mb 0.00 in0.0 mm 0.00 in/hr0.0 mm/hr 0.00 in0.0 mm
07:18 AM 59.9°F15.5°C 46.5°F8.1°C 61% 4.0 mph SW6.4 kmh SW 9.2 mph14.8 kmh 28.95 in980.4 mb 0.00 in0.0 mm 0.00 in/hr0.0 mm/hr 0.00 in0.0 mm
07:17 AM 59.9°F15.5°C 46.5°F8.1°C 61% 1.8 mph SW2.9 kmh SW 9.2 mph14.8 kmh 28.95 in980.4 mb 0.00 in0.0 mm 0.00 in/hr0.0 mm/hr 0.00 in0.0 mm
07:16 AM 59.9°F15.5°C 46.5°F8.1°C 61% 6.9 mph SW11.1 kmh SW 9.2 mph14.8 kmh 28.95 in980.4 mb 0.00 in0.0 mm 0.00 in/hr0.0 mm/hr 0.00 in0.0 mm
07:15 AM 59.9°F15.5°C 46.5°F8.1°C 61% 0.4 mph SW0.6 kmh SW 8.9 mph14.3 kmh 28.95 in980.4 mb 0.00 in0.0 mm 0.00 in/hr0.0 mm/hr 0.00 in0.0 mm
07:14 AM 59.9°F15.5°C 46.5°F8.1°C 61% 1.3 mph SW2.1 kmh SW 8.9 mph14.3 kmh 28.95 in980.4 mb 0.00 in0.0 mm 0.00 in/hr0.0 mm/hr 0.00 in0.0 mm
07:13 AM 59.9°F15.5°C 46.5°F8.1°C 61% 8.9 mph SW14.3 kmh SW 8.9 mph14.3 kmh 28.95 in980.4 mb 0.00 in0.0 mm 0.00 in/hr0.0 mm/hr 0.00 in0.0 mm
07:12 AM 59.9°F15.5°C 46.5°F8.1°C 61% 1.6 mph SW2.6 kmh SW 8.7 mph14.0 kmh 28.95 in980.4 mb 0.00 in0.0 mm 0.00 in/hr0.0 mm/hr 0.00 in0.0 mm
07:11 AM 59.9°F15.5°C 46.5°F8.1°C 61% Calm Calm 10.1 mph16.3 kmh 28.95 in980.4 mb 0.00 in0.0 mm 0.00 in/hr0.0 mm/hr 0.00 in0.0 mm
07:10 AM 59.9°F15.5°C 46.5°F8.1°C 61% 3.4 mph SW5.5 kmh SW 10.1 mph16.3 kmh 28.95 in980.4 mb 0.00 in0.0 mm 0.00 in/hr0.0 mm/hr 0.00 in0.0 mm
07:09 AM 59.9°F15.5°C 46.5°F8.1°C 61% 6.3 mph SW10.1 kmh SW 11.9 mph19.2 kmh 28.94 in980.0 mb 0.00 in0.0 mm 0.00 in/hr0.0 mm/hr 0.00 in0.0 mm
07:08 AM 59.9°F15.5°C 46.5°F8.1°C 61% 5.4 mph SW8.7 kmh SW 11.9 mph19.2 kmh 28.95 in980.4 mb 0.00 in0.0 mm 0.00 in/hr0.0 mm/hr 0.00 in0.0 mm
07:07 AM 59.9°F15.5°C 46.5°F8.1°C 61% 0.9 mph SSW1.4 kmh SSW 11.9 mph19.2 kmh 28.94 in980.0 mb 0.00 in0.0 mm 0.00 in/hr0.0 mm/hr 0.00 in0.0 mm
07:06 AM 59.9°F15.5°C 46.9°F8.3°C 62% 2.0 mph SSW3.2 kmh SSW 11.9 mph19.2 kmh 28.94 in980.0 mb 0.00 in0.0 mm 0.00 in/hr0.0 mm/hr 0.00 in0.0 mm
07:05 AM 59.9°F15.5°C 46.9°F8.3°C 62% 4.3 mph SSW6.9 kmh SSW 11.9 mph19.2 kmh 28.94 in980.0 mb 0.00 in0.0 mm 0.00 in/hr0.0 mm/hr 0.00 in0.0 mm
07:04 AM 59.9°F15.5°C 46.9°F8.3°C 62% 6.5 mph SSW10.5 kmh SSW 11.9 mph19.2 kmh 28.94 in980.0 mb 0.00 in0.0 mm 0.00 in/hr0.0 mm/hr 0.00 in0.0 mm
07:03 AM 59.9°F15.5°C 46.9°F8.3°C 62% 1.1 mph SSW1.8 kmh SSW 11.9 mph19.2 kmh 28.94 in980.0 mb 0.00 in0.0 mm 0.00 in/hr0.0 mm/hr 0.00 in0.0 mm
07:02 AM 59.9°F15.5°C 46.9°F8.3°C 62% 3.4 mph SSW5.5 kmh SSW 11.9 mph19.2 kmh 28.94 in980.0 mb 0.00 in0.0 mm 0.00 in/hr0.0 mm/hr 0.00 in0.0 mm
07:01 AM 59.9°F15.5°C 46.9°F8.3°C 62% 10.1 mph SSW16.3 kmh SSW 11.9 mph19.2 kmh 28.94 in980.0 mb 0.00 in0.0 mm 0.00 in/hr0.0 mm/hr 0.00 in0.0 mm
07:00 AM 59.9°F15.5°C 46.9°F8.3°C 62% 3.1 mph SSW5.0 kmh SSW 11.9 mph19.2 kmh 28.94 in980.0 mb 0.00 in0.0 mm 0.00 in/hr0.0 mm/hr 0.00 in0.0 mm
06:59 AM 59.9°F15.5°C 46.9°F8.3°C 62% 11.9 mph SSW19.2 kmh SSW 11.9 mph19.2 kmh 28.94 in980.0 mb 0.00 in0.0 mm 0.00 in/hr0.0 mm/hr 0.00 in0.0 mm
06:58 AM 59.9°F15.5°C 46.5°F8.1°C 61% 4.3 mph SSW6.9 kmh SSW 11.6 mph18.7 kmh 28.93 in979.7 mb 0.00 in0.0 mm 0.00 in/hr0.0 mm/hr 0.00 in0.0 mm
06:57 AM 59.9°F15.5°C 46.5°F8.1°C 61% 3.1 mph SSW5.0 kmh SSW 11.6 mph18.7 kmh 28.93 in979.7 mb 0.00 in0.0 mm 0.00 in/hr0.0 mm/hr 0.00 in0.0 mm
06:56 AM 59.9°F15.5°C 46.5°F8.1°C 61% 8.3 mph SSW13.4 kmh SSW 11.6 mph18.7 kmh 28.93 in979.7 mb 0.00 in0.0 mm 0.00 in/hr0.0 mm/hr 0.00 in0.0 mm
06:55 AM 59.9°F15.5°C 46.5°F8.1°C 61% 10.5 mph SSW16.9 kmh SSW 11.6 mph18.7 kmh 28.93 in979.7 mb 0.00 in0.0 mm 0.00 in/hr0.0 mm/hr 0.00 in0.0 mm
06:54 AM 59.9°F15.5°C 46.5°F8.1°C 61% 11.4 mph SSW18.3 kmh SSW 11.4 mph18.3 kmh 28.93 in979.7 mb 0.00 in0.0 mm 0.00 in/hr0.0 mm/hr 0.00 in0.0 mm
06:53 AM 59.9°F15.5°C 46.5°F8.1°C 61% 8.5 mph SSW13.7 kmh SSW 10.5 mph16.9 kmh 28.94 in980.0 mb 0.00 in0.0 mm 0.00 in/hr0.0 mm/hr 0.00 in0.0 mm
06:52 AM 59.9°F15.5°C 46.5°F8.1°C 61% 4.0 mph SSW6.4 kmh SSW 9.4 mph15.1 kmh 28.93 in979.7 mb 0.00 in0.0 mm 0.00 in/hr0.0 mm/hr 0.00 in0.0 mm
06:51 AM 59.9°F15.5°C 46.5°F8.1°C 61% 6.5 mph SSW10.5 kmh SSW 9.6 mph15.4 kmh 28.94 in980.0 mb 0.00 in0.0 mm 0.00 in/hr0.0 mm/hr 0.00 in0.0 mm
06:50 AM 59.9°F15.5°C 46.5°F8.1°C 61% 7.2 mph SSW11.6 kmh SSW 9.6 mph15.4 kmh 28.94 in980.0 mb 0.00 in0.0 mm 0.00 in/hr0.0 mm/hr 0.00 in0.0 mm
06:49 AM 59.9°F15.5°C 46.5°F8.1°C 61% 2.7 mph SSW4.3 kmh SSW 9.6 mph15.4 kmh 28.94 in980.0 mb 0.00 in0.0 mm 0.00 in/hr0.0 mm/hr 0.00 in0.0 mm
06:48 AM 59.9°F15.5°C 46.5°F8.1°C 61% 5.4 mph SSW8.7 kmh SSW 9.6 mph15.4 kmh 28.93 in979.7 mb 0.00 in0.0 mm 0.00 in/hr0.0 mm/hr 0.00 in0.0 mm
06:47 AM 59.9°F15.5°C 46.5°F8.1°C 61% 4.3 mph SSW6.9 kmh SSW 9.6 mph15.4 kmh 28.94 in980.0 mb 0.00 in0.0 mm 0.00 in/hr0.0 mm/hr 0.00 in0.0 mm
06:46 AM 59.9°F15.5°C 46.5°F8.1°C 61% 4.7 mph SSW7.6 kmh SSW 9.6 mph15.4 kmh 28.94 in980.0 mb 0.00 in0.0 mm 0.00 in/hr0.0 mm/hr 0.00 in0.0 mm
06:45 AM 59.9°F15.5°C 46.5°F8.1°C 61% 2.9 mph SSW4.7 kmh SSW 9.6 mph15.4 kmh 28.94 in980.0 mb 0.00 in0.0 mm 0.00 in/hr0.0 mm/hr 0.00 in0.0 mm
06:44 AM 59.9°F15.5°C 46.0°F7.8°C 60% 2.0 mph SSW3.2 kmh SSW 9.6 mph15.4 kmh 28.94 in980.0 mb 0.00 in0.0 mm 0.00 in/hr0.0 mm/hr 0.00 in0.0 mm
06:43 AM 59.9°F15.5°C 46.0°F7.8°C 60% 4.9 mph SSW7.9 kmh SSW 9.6 mph15.4 kmh 28.94 in980.0 mb 0.00 in0.0 mm 0.00 in/hr0.0 mm/hr 0.00 in0.0 mm
06:42 AM 59.9°F15.5°C 46.0°F7.8°C 60% 3.8 mph SSW6.1 kmh SSW 9.6 mph15.4 kmh 28.94 in980.0 mb 0.00 in0.0 mm 0.00 in/hr0.0 mm/hr 0.00 in0.0 mm
06:41 AM 60.1°F15.6°C 46.2°F7.9°C 60% 4.0 mph SSW6.4 kmh SSW 11.0 mph17.7 kmh 28.94 in980.0 mb 0.00 in0.0 mm 0.00 in/hr0.0 mm/hr 0.00 in0.0 mm
06:40 AM 60.1°F15.6°C 46.2°F7.9°C 60% 6.9 mph SSW11.1 kmh SSW 11.0 mph17.7 kmh 28.94 in980.0 mb 0.00 in0.0 mm 0.00 in/hr0.0 mm/hr 0.00 in0.0 mm
06:39 AM 60.1°F15.6°C 46.2°F7.9°C 60% 6.0 mph SSW9.7 kmh SSW 11.0 mph17.7 kmh 28.94 in980.0 mb 0.00 in0.0 mm 0.00 in/hr0.0 mm/hr 0.00 in0.0 mm
06:38 AM 60.1°F15.6°C 46.2°F7.9°C 60% 5.4 mph SSW8.7 kmh SSW 11.0 mph17.7 kmh 28.94 in980.0 mb 0.00 in0.0 mm 0.00 in/hr0.0 mm/hr 0.00 in0.0 mm
06:37 AM 60.1°F15.6°C 46.2°F7.9°C 60% 6.5 mph SSW10.5 kmh SSW 11.0 mph17.7 kmh 28.94 in980.0 mb 0.00 in0.0 mm 0.00 in/hr0.0 mm/hr 0.00 in0.0 mm
06:36 AM 60.1°F15.6°C 46.2°F7.9°C 60% 1.6 mph SSW2.6 kmh SSW 11.0 mph17.7 kmh 28.94 in980.0 mb 0.00 in0.0 mm 0.00 in/hr0.0 mm/hr 0.00 in0.0 mm
06:35 AM 60.1°F15.6°C 46.2°F7.9°C 60% 4.5 mph SSW7.2 kmh SSW 11.0 mph17.7 kmh 28.94 in980.0 mb 0.00 in0.0 mm 0.00 in/hr0.0 mm/hr 0.00 in0.0 mm
06:34 AM 60.1°F15.6°C 46.2°F7.9°C 60% 4.5 mph SSW7.2 kmh SSW 11.0 mph17.7 kmh 28.94 in980.0 mb 0.00 in0.0 mm 0.00 in/hr0.0 mm/hr 0.00 in0.0 mm
06:33 AM 60.1°F15.6°C 46.2°F7.9°C 60% 8.1 mph SSW13.0 kmh SSW 11.0 mph17.7 kmh 28.94 in980.0 mb 0.00 in0.0 mm 0.00 in/hr0.0 mm/hr 0.00 in0.0 mm
06:32 AM 60.1°F15.6°C 46.2°F7.9°C 60% 5.1 mph SSW8.2 kmh SSW 11.0 mph17.7 kmh 28.94 in980.0 mb 0.00 in0.0 mm 0.00 in/hr0.0 mm/hr 0.00 in0.0 mm
06:31 AM 60.1°F15.6°C 46.2°F7.9°C 60% 7.2 mph SSW11.6 kmh SSW 8.1 mph13.0 kmh 28.94 in980.0 mb 0.00 in0.0 mm 0.00 in/hr0.0 mm/hr 0.00 in0.0 mm
06:30 AM 60.1°F15.6°C 46.2°F7.9°C 60% 3.4 mph SSW5.5 kmh SSW 8.1 mph13.0 kmh 28.94 in980.0 mb 0.00 in0.0 mm 0.00 in/hr0.0 mm/hr 0.00 in0.0 mm
06:29 AM 60.1°F15.6°C 46.2°F7.9°C 60% 2.9 mph SSW4.7 kmh SSW 8.1 mph13.0 kmh 28.94 in980.0 mb 0.00 in0.0 mm 0.00 in/hr0.0 mm/hr 0.00 in0.0 mm
06:28 AM 60.1°F15.6°C 46.2°F7.9°C 60% 5.6 mph SSW9.0 kmh SSW 8.1 mph13.0 kmh 28.94 in980.0 mb 0.00 in0.0 mm 0.00 in/hr0.0 mm/hr 0.00 in0.0 mm
06:27 AM 60.1°F15.6°C 46.2°F7.9°C 60% 3.4 mph SSW5.5 kmh SSW 8.1 mph13.0 kmh 28.94 in980.0 mb 0.00 in0.0 mm 0.00 in/hr0.0 mm/hr 0.00 in0.0 mm
06:26 AM 60.1°F15.6°C 46.2°F7.9°C 60% 3.6 mph SSW5.8 kmh SSW 8.1 mph13.0 kmh 28.94 in980.0 mb 0.00 in0.0 mm 0.00 in/hr0.0 mm/hr 0.00 in0.0 mm
06:25 AM 60.1°F15.6°C 46.2°F7.9°C 60% 3.8 mph SSW6.1 kmh SSW 8.1 mph13.0 kmh 28.94 in980.0 mb 0.00 in0.0 mm 0.00 in/hr0.0 mm/hr 0.00 in0.0 mm
06:24 AM 60.1°F15.6°C 46.2°F7.9°C 60% 5.6 mph SSW9.0 kmh SSW 8.1 mph13.0 kmh 28.94 in980.0 mb 0.00 in0.0 mm 0.00 in/hr0.0 mm/hr 0.00 in0.0 mm
06:23 AM 60.1°F15.6°C 46.2°F7.9°C 60% 4.3 mph SSW6.9 kmh SSW 8.1 mph13.0 kmh 28.94 in980.0 mb 0.00 in0.0 mm 0.00 in/hr0.0 mm/hr 0.00 in0.0 mm
06:22 AM 60.1°F15.6°C 46.2°F7.9°C 60% 5.1 mph SSW8.2 kmh SSW 8.1 mph13.0 kmh 28.94 in980.0 mb 0.00 in0.0 mm 0.00 in/hr0.0 mm/hr 0.00 in0.0 mm
06:21 AM 60.1°F15.6°C 46.2°F7.9°C 60% 5.4 mph SSW8.7 kmh SSW 8.1 mph13.0 kmh 28.94 in980.0 mb 0.00 in0.0 mm 0.00 in/hr0.0 mm/hr 0.00 in0.0 mm
06:20 AM 60.1°F15.6°C 46.2°F7.9°C 60% 5.4 mph SSW8.7 kmh SSW 7.4 mph11.9 kmh 28.94 in980.0 mb 0.00 in0.0 mm 0.00 in/hr0.0 mm/hr 0.00 in0.0 mm
06:19 AM 60.1°F15.6°C 46.2°F7.9°C 60% 4.7 mph SSW7.6 kmh SSW 7.4 mph11.9 kmh 28.94 in980.0 mb 0.00 in0.0 mm 0.00 in/hr0.0 mm/hr 0.00 in0.0 mm
06:18 AM 60.1°F15.6°C 46.2°F7.9°C 60% 5.4 mph SSW8.7 kmh SSW 8.3 mph13.4 kmh 28.94 in980.0 mb 0.00 in0.0 mm 0.00 in/hr0.0 mm/hr 0.00 in0.0 mm
06:17 AM 60.1°F15.6°C 46.2°F7.9°C 60% 2.9 mph SSW4.7 kmh SSW 8.3 mph13.4 kmh 28.94 in980.0 mb 0.00 in0.0 mm 0.00 in/hr0.0 mm/hr 0.00 in0.0 mm
06:16 AM 60.1°F15.6°C 46.2°F7.9°C 60% 4.9 mph SSW7.9 kmh SSW 8.9 mph14.3 kmh 28.94 in980.0 mb 0.00 in0.0 mm 0.00 in/hr0.0 mm/hr 0.00 in0.0 mm
06:15 AM 60.1°F15.6°C 46.2°F7.9°C 60% 4.9 mph SSW7.9 kmh SSW 8.9 mph14.3 kmh 28.94 in980.0 mb 0.00 in0.0 mm 0.00 in/hr0.0 mm/hr 0.00 in0.0 mm
06:14 AM 60.1°F15.6°C 46.2°F7.9°C 60% 2.9 mph SSW4.7 kmh SSW 8.9 mph14.3 kmh 28.94 in980.0 mb 0.00 in0.0 mm 0.00 in/hr0.0 mm/hr 0.00 in0.0 mm
06:13 AM 60.1°F15.6°C 46.2°F7.9°C 60% 3.6 mph SSW5.8 kmh SSW 8.9 mph14.3 kmh 28.94 in980.0 mb 0.00 in0.0 mm 0.00 in/hr0.0 mm/hr 0.00 in0.0 mm
06:12 AM 60.1°F15.6°C 46.2°F7.9°C 60% 2.5 mph SSW4.0 kmh SSW 8.9 mph14.3 kmh 28.94 in980.0 mb 0.00 in0.0 mm 0.00 in/hr0.0 mm/hr 0.00 in0.0 mm
06:11 AM 60.1°F15.6°C 46.2°F7.9°C 60% 4.7 mph SSW7.6 kmh SSW 8.9 mph14.3 kmh 28.94 in980.0 mb 0.00 in0.0 mm 0.00 in/hr0.0 mm/hr 0.00 in0.0 mm
06:10 AM 60.1°F15.6°C 46.2°F7.9°C 60% 2.0 mph SSW3.2 kmh SSW 10.5 mph16.9 kmh 28.94 in980.0 mb 0.00 in0.0 mm 0.00 in/hr0.0 mm/hr 0.00 in0.0 mm
06:09 AM 60.1°F15.6°C 46.2°F7.9°C 60% 7.6 mph SSW12.2 kmh SSW 10.5 mph16.9 kmh 28.94 in980.0 mb 0.00 in0.0 mm 0.00 in/hr0.0 mm/hr 0.00 in0.0 mm
06:08 AM 60.1°F15.6°C 46.2°F7.9°C 60% 3.8 mph SSW6.1 kmh SSW 10.5 mph16.9 kmh 28.94 in980.0 mb 0.00 in0.0 mm 0.00 in/hr0.0 mm/hr 0.00 in0.0 mm
06:07 AM 60.1°F15.6°C 46.2°F7.9°C 60% 5.6 mph SSW9.0 kmh SSW 10.5 mph16.9 kmh 28.94 in980.0 mb 0.00 in0.0 mm 0.00 in/hr0.0 mm/hr 0.00 in0.0 mm
06:06 AM 60.3°F15.7°C 46.4°F8.0°C 60% 5.6 mph SSW9.0 kmh SSW 10.5 mph16.9 kmh 28.94 in980.0 mb 0.00 in0.0 mm 0.00 in/hr0.0 mm/hr 0.00 in0.0 mm
06:05 AM 60.3°F15.7°C 46.4°F8.0°C 60% 4.9 mph SSW7.9 kmh SSW 10.5 mph16.9 kmh 28.94 in980.0 mb 0.00 in0.0 mm 0.00 in/hr0.0 mm/hr 0.00 in0.0 mm
06:04 AM 60.4°F15.8°C 46.6°F8.1°C 60% 7.6 mph SSW12.2 kmh SSW 10.5 mph16.9 kmh 28.94 in980.0 mb 0.00 in0.0 mm 0.00 in/hr0.0 mm/hr 0.00 in0.0 mm
06:03 AM 60.4°F15.8°C 46.6°F8.1°C 60% 7.6 mph SSW12.2 kmh SSW 10.5 mph16.9 kmh 28.94 in980.0 mb 0.00 in0.0 mm 0.00 in/hr0.0 mm/hr 0.00 in0.0 mm
06:02 AM 60.4°F15.8°C 46.6°F8.1°C 60% 4.7 mph SSW7.6 kmh SSW 10.5 mph16.9 kmh 28.94 in980.0 mb 0.00 in0.0 mm 0.00 in/hr0.0 mm/hr 0.00 in0.0 mm
06:01 AM 60.4°F15.8°C 46.6°F8.1°C 60% 2.9 mph SSW4.7 kmh SSW 10.5 mph16.9 kmh 28.94 in980.0 mb 0.00 in0.0 mm 0.00 in/hr0.0 mm/hr 0.00 in0.0 mm
06:00 AM 60.4°F15.8°C 46.6°F8.1°C 60% 10.5 mph SW16.9 kmh SW 10.5 mph16.9 kmh 28.94 in980.0 mb 0.00 in0.0 mm 0.00 in/hr0.0 mm/hr 0.00 in0.0 mm
05:59 AM 60.4°F15.8°C 46.1°F7.8°C 59% 4.5 mph SW7.2 kmh SW 9.2 mph14.8 kmh 28.94 in980.0 mb 0.00 in0.0 mm 0.00 in/hr0.0 mm/hr 0.00 in0.0 mm
05:58 AM 60.4°F15.8°C 46.1°F7.8°C 59% 6.5 mph SW10.5 kmh SW 9.2 mph14.8 kmh 28.94 in980.0 mb 0.00 in0.0 mm 0.00 in/hr0.0 mm/hr 0.00 in0.0 mm
05:57 AM 60.4°F15.8°C 46.1°F7.8°C 59% 6.3 mph SW10.1 kmh SW 9.4 mph15.1 kmh 28.94 in980.0 mb 0.00 in0.0 mm 0.00 in/hr0.0 mm/hr 0.00 in0.0 mm
05:56 AM 60.4°F15.8°C 46.1°F7.8°C 59% 4.3 mph SW6.9 kmh SW 9.4 mph15.1 kmh 28.94 in980.0 mb 0.00 in0.0 mm 0.00 in/hr0.0 mm/hr 0.00 in0.0 mm
05:55 AM 60.4°F15.8°C 46.1°F7.8°C 59% 5.8 mph SSW9.3 kmh SSW 9.4 mph15.1 kmh 28.94 in980.0 mb 0.00 in0.0 mm 0.00 in/hr0.0 mm/hr 0.00 in0.0 mm
05:54 AM 60.6°F15.9°C 46.3°F7.9°C 59% 8.1 mph SSW13.0 kmh SSW 9.4 mph15.1 kmh 28.94 in980.0 mb 0.00 in0.0 mm 0.00 in/hr0.0 mm/hr 0.00 in0.0 mm
05:53 AM 60.6°F15.9°C 46.8°F8.2°C 60% 6.9 mph SSW11.1 kmh SSW 9.4 mph15.1 kmh 28.94 in980.0 mb 0.00 in0.0 mm 0.00 in/hr0.0 mm/hr 0.00 in0.0 mm
05:52 AM 60.6°F15.9°C 46.8°F8.2°C 60% 4.0 mph SSW6.4 kmh SSW 9.4 mph15.1 kmh 28.94 in980.0 mb 0.00 in0.0 mm 0.00 in/hr0.0 mm/hr 0.00 in0.0 mm
05:51 AM 60.6°F15.9°C 46.8°F8.2°C 60% 5.4 mph SSW8.7 kmh SSW 9.4 mph15.1 kmh 28.94 in980.0 mb 0.00 in0.0 mm 0.00 in/hr0.0 mm/hr 0.00 in0.0 mm
05:50 AM 60.6°F15.9°C 46.8°F8.2°C 60% 5.1 mph SSW8.2 kmh SSW 9.4 mph15.1 kmh 28.94 in980.0 mb 0.00 in0.0 mm 0.00 in/hr0.0 mm/hr 0.00 in0.0 mm
05:49 AM 60.6°F15.9°C 46.8°F8.2°C 60% 1.8 mph SSW2.9 kmh SSW 9.4 mph15.1 kmh 28.94 in980.0 mb 0.00 in0.0 mm 0.00 in/hr0.0 mm/hr 0.00 in0.0 mm
05:48 AM 60.6°F15.9°C 46.8°F8.2°C 60% 3.6 mph SSW5.8 kmh SSW 9.4 mph15.1 kmh 28.94 in980.0 mb 0.00 in0.0 mm 0.00 in/hr0.0 mm/hr 0.00 in0.0 mm
05:47 AM 60.6°F15.9°C 46.8°F8.2°C 60% 3.1 mph SSW5.0 kmh SSW 8.5 mph13.7 kmh 28.94 in980.0 mb 0.00 in0.0 mm 0.00 in/hr0.0 mm/hr 0.00 in0.0 mm
05:46 AM 60.6°F15.9°C 46.8°F8.2°C 60% 2.5 mph SSW4.0 kmh SSW 8.5 mph13.7 kmh 28.94 in980.0 mb 0.00 in0.0 mm 0.00 in/hr0.0 mm/hr 0.00 in0.0 mm
05:45 AM 60.6°F15.9°C 46.8°F8.2°C 60% 7.6 mph SSW12.2 kmh SSW 7.6 mph12.2 kmh 28.94 in980.0 mb 0.00 in0.0 mm 0.00 in/hr0.0 mm/hr 0.00 in0.0 mm
05:44 AM 60.6°F15.9°C 46.8°F8.2°C 60% 3.4 mph SSW5.5 kmh SSW 7.2 mph11.6 kmh 28.94 in980.0 mb 0.00 in0.0 mm 0.00 in/hr0.0 mm/hr 0.00 in0.0 mm
05:43 AM 60.6°F15.9°C 46.3°F7.9°C 60% 4.3 mph SSW6.9 kmh SSW 7.2 mph11.6 kmh 28.94 in980.0 mb 0.00 in0.0 mm 0.00 in/hr0.0 mm/hr 0.00 in0.0 mm
05:42 AM 60.6°F15.9°C 46.3°F7.9°C 59% 3.1 mph SSW5.0 kmh SSW 8.7 mph14.0 kmh 28.94 in980.0 mb 0.00 in0.0 mm 0.00 in/hr0.0 mm/hr 0.00 in0.0 mm
05:41 AM 60.6°F15.9°C 46.3°F7.9°C 59% 1.8 mph SSW2.9 kmh SSW 9.8 mph15.8 kmh 28.94 in980.0 mb 0.00 in0.0 mm 0.00 in/hr0.0 mm/hr 0.00 in0.0 mm
05:40 AM 60.6°F15.9°C 46.3°F7.9°C 59% 2.0 mph SSW3.2 kmh SSW 9.8 mph15.8 kmh 28.94 in980.0 mb 0.00 in0.0 mm 0.00 in/hr0.0 mm/hr 0.00 in0.0 mm
05:39 AM 60.6°F15.9°C 46.3°F7.9°C 59% 4.0 mph SSW6.4 kmh SSW 9.8 mph15.8 kmh 28.94 in980.0 mb 0.00 in0.0 mm 0.00 in/hr0.0 mm/hr 0.00 in0.0 mm
05:38 AM 60.6°F15.9°C 46.3°F7.9°C 59% 2.2 mph SSW3.5 kmh SSW 9.8 mph15.8 kmh 28.94 in980.0 mb 0.00 in0.0 mm 0.00 in/hr0.0 mm/hr 0.00 in0.0 mm
05:37 AM 60.6°F15.9°C 46.3°F7.9°C 59% 5.8 mph SSW9.3 kmh SSW 9.8 mph15.8 kmh 28.94 in980.0 mb 0.00 in0.0 mm 0.00 in/hr0.0 mm/hr 0.00 in0.0 mm
05:36 AM 60.6°F15.9°C 46.3°F7.9°C 59% 0.9 mph SSW1.4 kmh SSW 9.8 mph15.8 kmh 28.94 in980.0 mb 0.00 in0.0 mm 0.00 in/hr0.0 mm/hr 0.00 in0.0 mm
05:35 AM 60.6°F15.9°C 46.3°F7.9°C 59% 3.6 mph SSW5.8 kmh SSW 9.8 mph15.8 kmh 28.94 in980.0 mb 0.00 in0.0 mm 0.00 in/hr0.0 mm/hr 0.00 in0.0 mm
05:34 AM 60.6°F15.9°C 46.3°F7.9°C 59% 0.7 mph SSW1.1 kmh SSW 9.8 mph15.8 kmh 28.94 in980.0 mb 0.00 in0.0 mm 0.00 in/hr0.0 mm/hr 0.00 in0.0 mm
05:33 AM 60.6°F15.9°C 46.3°F7.9°C 59% 2.7 mph SSW4.3 kmh SSW 9.8 mph15.8 kmh 28.94 in980.0 mb 0.00 in0.0 mm 0.00 in/hr0.0 mm/hr 0.00 in0.0 mm
05:32 AM 60.6°F15.9°C 46.3°F7.9°C 59% 9.8 mph SSW15.8 kmh SSW 9.8 mph15.8 kmh 28.94 in980.0 mb 0.00 in0.0 mm 0.00 in/hr0.0 mm/hr 0.00 in0.0 mm
05:31 AM 60.6°F15.9°C 46.3°F7.9°C 59% 3.8 mph SSW6.1 kmh SSW 8.7 mph14.0 kmh 28.94 in980.0 mb 0.00 in0.0 mm 0.00 in/hr0.0 mm/hr 0.00 in0.0 mm
05:30 AM 60.6°F15.9°C 46.3°F7.9°C 59% 4.9 mph SSW7.9 kmh SSW 8.7 mph14.0 kmh 28.94 in980.0 mb 0.00 in0.0 mm 0.00 in/hr0.0 mm/hr 0.00 in0.0 mm
05:29 AM 60.6°F15.9°C 46.3°F7.9°C 59% 5.6 mph SSW9.0 kmh SSW 11.0 mph17.7 kmh 28.94 in980.0 mb 0.00 in0.0 mm 0.00 in/hr0.0 mm/hr 0.00 in0.0 mm
05:28 AM 60.6°F15.9°C 46.3°F7.9°C 59% 7.4 mph SSW11.9 kmh SSW 11.0 mph17.7 kmh 28.94 in980.0 mb 0.00 in0.0 mm 0.00 in/hr0.0 mm/hr 0.00 in0.0 mm
05:27 AM 60.6°F15.9°C 46.3°F7.9°C 59% 5.8 mph SSW9.3 kmh SSW 12.8 mph20.6 kmh 28.94 in980.0 mb 0.00 in0.0 mm 0.00 in/hr0.0 mm/hr 0.00 in0.0 mm
05:26 AM 60.6°F15.9°C 46.3°F7.9°C 59% 4.0 mph SSW6.4 kmh SSW 12.8 mph20.6 kmh 28.94 in980.0 mb 0.00 in0.0 mm 0.00 in/hr0.0 mm/hr 0.00 in0.0 mm
05:25 AM 60.8°F16.0°C 46.5°F8.1°C 59% 1.1 mph SSW1.8 kmh SSW 12.8 mph20.6 kmh 28.94 in980.0 mb 0.00 in0.0 mm 0.00 in/hr0.0 mm/hr 0.00 in0.0 mm
05:24 AM 60.8°F16.0°C 46.5°F8.1°C 59% 3.4 mph SSW5.5 kmh SSW 12.8 mph20.6 kmh 28.94 in980.0 mb 0.00 in0.0 mm 0.00 in/hr0.0 mm/hr 0.00 in0.0 mm
05:23 AM 60.6°F15.9°C 46.3°F7.9°C 59% 6.3 mph SW10.1 kmh SW 12.8 mph20.6 kmh 28.94 in980.0 mb 0.00 in0.0 mm 0.00 in/hr0.0 mm/hr 0.00 in0.0 mm
05:22 AM 60.8°F16.0°C 46.5°F8.1°C 59% 8.1 mph SW13.0 kmh SW 12.8 mph20.6 kmh 28.94 in980.0 mb 0.00 in0.0 mm 0.00 in/hr0.0 mm/hr 0.00 in0.0 mm
05:21 AM 60.8°F16.0°C 46.5°F8.1°C 59% 6.0 mph SW9.7 kmh SW 12.8 mph20.6 kmh 28.94 in980.0 mb 0.00 in0.0 mm 0.00 in/hr0.0 mm/hr 0.00 in0.0 mm
05:20 AM 60.8°F16.0°C 46.5°F8.1°C 59% 4.9 mph SW7.9 kmh SW 12.8 mph20.6 kmh 28.94 in980.0 mb 0.00 in0.0 mm 0.00 in/hr0.0 mm/hr 0.00 in0.0 mm
05:19 AM 60.6°F15.9°C 46.3°F7.9°C 59% 4.7 mph SSW7.6 kmh SSW 12.8 mph20.6 kmh 28.94 in980.0 mb 0.00 in0.0 mm 0.00 in/hr0.0 mm/hr 0.00 in0.0 mm
05:18 AM 60.8°F16.0°C 46.5°F8.1°C 59% 12.3 mph SSW19.8 kmh SSW 12.8 mph20.6 kmh 28.94 in980.0 mb 0.00 in0.0 mm 0.00 in/hr0.0 mm/hr 0.00 in0.0 mm
05:17 AM 60.6°F15.9°C 46.3°F7.9°C 59% 4.7 mph SSW7.6 kmh SSW 11.9 mph19.2 kmh 28.94 in980.0 mb 0.00 in0.0 mm 0.00 in/hr0.0 mm/hr 0.00 in0.0 mm
05:16 AM 60.6°F15.9°C 46.3°F7.9°C 59% 6.3 mph SSW10.1 kmh SSW 11.9 mph19.2 kmh 28.94 in980.0 mb 0.00 in0.0 mm 0.00 in/hr0.0 mm/hr 0.00 in0.0 mm
05:15 AM 60.8°F16.0°C 46.0°F7.8°C 58% 5.4 mph SSW8.7 kmh SSW 11.9 mph19.2 kmh 28.94 in980.0 mb 0.00 in0.0 mm 0.00 in/hr0.0 mm/hr 0.00 in0.0 mm
05:14 AM 60.8°F16.0°C 46.5°F8.1°C 59% 6.7 mph SSW10.8 kmh SSW 12.1 mph19.5 kmh 28.94 in980.0 mb 0.00 in0.0 mm 0.00 in/hr0.0 mm/hr 0.00 in0.0 mm
05:13 AM 60.6°F15.9°C 46.3°F7.9°C 59% 4.0 mph SSW6.4 kmh SSW 12.1 mph19.5 kmh 28.94 in980.0 mb 0.00 in0.0 mm 0.00 in/hr0.0 mm/hr 0.00 in0.0 mm
05:12 AM 60.6°F15.9°C 46.3°F7.9°C 59% 8.7 mph SSW14.0 kmh SSW 12.1 mph19.5 kmh 28.94 in980.0 mb 0.00 in0.0 mm 0.00 in/hr0.0 mm/hr 0.00 in0.0 mm
05:11 AM 60.6°F15.9°C 46.3°F7.9°C 59% 6.0 mph SSW9.7 kmh SSW 12.1 mph19.5 kmh 28.94 in980.0 mb 0.00 in0.0 mm 0.00 in/hr0.0 mm/hr 0.00 in0.0 mm
05:10 AM 60.6°F15.9°C 45.8°F7.7°C 58% 3.6 mph SSW5.8 kmh SSW 12.1 mph19.5 kmh 28.94 in980.0 mb 0.00 in0.0 mm 0.00 in/hr0.0 mm/hr 0.00 in0.0 mm
05:09 AM 60.6°F15.9°C 45.8°F7.7°C 58% 8.1 mph SSW13.0 kmh SSW 12.1 mph19.5 kmh 28.94 in980.0 mb 0.00 in0.0 mm 0.00 in/hr0.0 mm/hr 0.00 in0.0 mm
05:08 AM 60.6°F15.9°C 46.3°F7.9°C 59% 9.8 mph SSW15.8 kmh SSW 12.1 mph19.5 kmh 28.94 in980.0 mb 0.00 in0.0 mm 0.00 in/hr0.0 mm/hr 0.00 in0.0 mm
05:07 AM 60.6°F15.9°C 46.3°F7.9°C 59% 7.6 mph SSW12.2 kmh SSW 12.1 mph19.5 kmh 28.94 in980.0 mb 0.00 in0.0 mm 0.00 in/hr0.0 mm/hr 0.00 in0.0 mm
05:06 AM 60.6°F15.9°C 45.8°F7.7°C 58% 7.4 mph SSW11.9 kmh SSW 12.1 mph19.5 kmh 28.94 in980.0 mb 0.00 in0.0 mm 0.00 in/hr0.0 mm/hr 0.00 in0.0 mm
05:05 AM 60.6°F15.9°C 45.8°F7.7°C 58% 8.3 mph SSW13.4 kmh SSW 12.1 mph19.5 kmh 28.94 in980.0 mb 0.00 in0.0 mm 0.00 in/hr0.0 mm/hr 0.00 in0.0 mm
05:04 AM 60.6°F15.9°C 45.8°F7.7°C 58% 8.1 mph SSW13.0 kmh SSW 12.1 mph19.5 kmh 28.94 in980.0 mb 0.00 in0.0 mm 0.00 in/hr0.0 mm/hr 0.00 in0.0 mm
05:03 AM 60.6°F15.9°C 45.8°F7.7°C 58% 7.8 mph SSW12.6 kmh SSW 12.1 mph19.5 kmh 28.94 in980.0 mb 0.00 in0.0 mm 0.00 in/hr0.0 mm/hr 0.00 in0.0 mm
05:02 AM 60.6°F15.9°C 45.8°F7.7°C 58% 10.7 mph SSW17.2 kmh SSW 12.1 mph19.5 kmh 28.94 in980.0 mb 0.00 in0.0 mm 0.00 in/hr0.0 mm/hr 0.00 in0.0 mm
05:01 AM 60.6°F15.9°C 45.8°F7.7°C 58% 5.4 mph SSW8.7 kmh SSW 12.1 mph19.5 kmh 28.94 in980.0 mb 0.00 in0.0 mm 0.00 in/hr0.0 mm/hr 0.00 in0.0 mm
05:00 AM 60.6°F15.9°C 45.8°F7.7°C 58% 6.0 mph SSW9.7 kmh SSW 12.1 mph19.5 kmh 28.94 in980.0 mb 0.00 in0.0 mm 0.00 in/hr0.0 mm/hr 0.00 in0.0 mm
04:59 AM 60.6°F15.9°C 45.8°F7.7°C 58% 11.2 mph SSW18.0 kmh SSW 12.1 mph19.5 kmh 28.94 in980.0 mb 0.00 in0.0 mm 0.00 in/hr0.0 mm/hr 0.00 in0.0 mm
04:58 AM 60.6°F15.9°C 45.8°F7.7°C 58% 6.7 mph SSW10.8 kmh SSW 12.1 mph19.5 kmh 28.94 in980.0 mb 0.00 in0.0 mm 0.00 in/hr0.0 mm/hr 0.00 in0.0 mm
04:57 AM 60.6°F15.9°C 45.8°F7.7°C 58% 11.2 mph SSW18.0 kmh SSW 12.1 mph19.5 kmh 28.94 in980.0 mb 0.00 in0.0 mm 0.00 in/hr0.0 mm/hr 0.00 in0.0 mm
04:56 AM 60.6°F15.9°C 45.8°F7.7°C 58% 2.9 mph SSW4.7 kmh SSW 12.1 mph19.5 kmh 28.94 in980.0 mb 0.00 in0.0 mm 0.00 in/hr0.0 mm/hr 0.00 in0.0 mm
04:55 AM 60.6°F15.9°C 45.8°F7.7°C 58% 7.4 mph SSW11.9 kmh SSW 12.1 mph19.5 kmh 28.94 in980.0 mb 0.00 in0.0 mm 0.00 in/hr0.0 mm/hr 0.00 in0.0 mm
04:54 AM 60.6°F15.9°C 45.8°F7.7°C 58% 5.6 mph SSW9.0 kmh SSW 9.8 mph15.8 kmh 28.94 in980.0 mb 0.00 in0.0 mm 0.00 in/hr0.0 mm/hr 0.00 in0.0 mm
04:53 AM 60.6°F15.9°C 45.8°F7.7°C 58% 5.4 mph SSW8.7 kmh SSW 9.8 mph15.8 kmh 28.94 in980.0 mb 0.00 in0.0 mm 0.00 in/hr0.0 mm/hr 0.00 in0.0 mm
04:52 AM 60.6°F15.9°C 45.8°F7.7°C 58% 5.4 mph SSW8.7 kmh SSW 9.8 mph15.8 kmh 28.94 in980.0 mb 0.00 in0.0 mm 0.00 in/hr0.0 mm/hr 0.00 in0.0 mm
04:51 AM 60.6°F15.9°C 45.8°F7.7°C 58% 7.8 mph SSW12.6 kmh SSW 9.6 mph15.4 kmh 28.94 in980.0 mb 0.00 in0.0 mm 0.00 in/hr0.0 mm/hr 0.00 in0.0 mm
04:50 AM 60.6°F15.9°C 45.8°F7.7°C 58% 9.2 mph SSW14.8 kmh SSW 9.6 mph15.4 kmh 28.94 in980.0 mb 0.00 in0.0 mm 0.00 in/hr0.0 mm/hr 0.00 in0.0 mm
04:49 AM 60.6°F15.9°C 45.8°F7.7°C 58% 3.4 mph SSW5.5 kmh SSW 9.6 mph15.4 kmh 28.94 in980.0 mb 0.00 in0.0 mm 0.00 in/hr0.0 mm/hr 0.00 in0.0 mm
04:48 AM 60.6°F15.9°C 45.8°F7.7°C 58% 6.3 mph SSW10.1 kmh SSW 9.6 mph15.4 kmh 28.94 in980.0 mb 0.00 in0.0 mm 0.00 in/hr0.0 mm/hr 0.00 in0.0 mm
04:47 AM 60.6°F15.9°C 45.8°F7.7°C 58% 9.4 mph SSW15.1 kmh SSW 9.4 mph15.1 kmh 28.94 in980.0 mb 0.00 in0.0 mm 0.00 in/hr0.0 mm/hr 0.00 in0.0 mm
04:46 AM 60.6°F15.9°C 45.8°F7.7°C 58% 5.4 mph SSW8.7 kmh SSW 8.5 mph13.7 kmh 28.94 in980.0 mb 0.00 in0.0 mm 0.00 in/hr0.0 mm/hr 0.00 in0.0 mm
04:45 AM 60.6°F15.9°C 45.8°F7.7°C 58% 5.1 mph SSW8.2 kmh SSW 8.5 mph13.7 kmh 28.94 in980.0 mb 0.00 in0.0 mm 0.00 in/hr0.0 mm/hr 0.00 in0.0 mm
04:44 AM 60.6°F15.9°C 45.8°F7.7°C 58% 5.1 mph SSW8.2 kmh SSW 8.3 mph13.4 kmh 28.94 in980.0 mb 0.00 in0.0 mm 0.00 in/hr0.0 mm/hr 0.00 in0.0 mm
04:43 AM 60.6°F15.9°C 45.8°F7.7°C 58% 7.4 mph SSW11.9 kmh SSW 8.3 mph13.4 kmh 28.94 in980.0 mb 0.00 in0.0 mm 0.00 in/hr0.0 mm/hr 0.00 in0.0 mm
04:42 AM 60.6°F15.9°C 45.8°F7.7°C 58% 4.3 mph SSW6.9 kmh SSW 7.4 mph11.9 kmh 28.94 in980.0 mb 0.00 in0.0 mm 0.00 in/hr0.0 mm/hr 0.00 in0.0 mm
04:41 AM 60.6°F15.9°C 45.8°F7.7°C 58% 5.4 mph SSW8.7 kmh SSW 7.4 mph11.9 kmh 28.94 in980.0 mb 0.00 in0.0 mm 0.00 in/hr0.0 mm/hr 0.00 in0.0 mm
04:40 AM 60.6°F15.9°C 45.8°F7.7°C 58% 2.2 mph SSW3.5 kmh SSW 7.2 mph11.6 kmh 28.94 in980.0 mb 0.00 in0.0 mm 0.00 in/hr0.0 mm/hr 0.00 in0.0 mm
04:39 AM 60.6°F15.9°C 45.8°F7.7°C 58% 4.5 mph SSW7.2 kmh SSW 8.3 mph13.4 kmh 28.94 in980.0 mb 0.00 in0.0 mm 0.00 in/hr0.0 mm/hr 0.00 in0.0 mm
04:38 AM 60.6°F15.9°C 45.8°F7.7°C 58% Calm Calm 8.3 mph13.4 kmh 28.94 in980.0 mb 0.00 in0.0 mm 0.00 in/hr0.0 mm/hr 0.00 in0.0 mm
04:37 AM 60.6°F15.9°C 45.8°F7.7°C 58% 2.0 mph SSW3.2 kmh SSW 8.3 mph13.4 kmh 28.94 in980.0 mb 0.00 in0.0 mm 0.00 in/hr0.0 mm/hr 0.00 in0.0 mm
04:36 AM 60.6°F15.9°C 45.8°F7.7°C 58% 2.9 mph SSW4.7 kmh SSW 8.3 mph13.4 kmh 28.94 in980.0 mb 0.00 in0.0 mm 0.00 in/hr0.0 mm/hr 0.00 in0.0 mm
04:35 AM 60.6°F15.9°C 45.8°F7.7°C 58% 1.8 mph SSW2.9 kmh SSW 8.3 mph13.4 kmh 28.94 in980.0 mb 0.00 in0.0 mm 0.00 in/hr0.0 mm/hr 0.00 in0.0 mm
04:34 AM 60.6°F15.9°C 45.8°F7.7°C 58% 5.6 mph SSW9.0 kmh SSW 8.5 mph13.7 kmh 28.94 in980.0 mb 0.00 in0.0 mm 0.00 in/hr0.0 mm/hr 0.00 in0.0 mm
04:33 AM 60.6°F15.9°C 45.8°F7.7°C 58% 4.5 mph SSW7.2 kmh SSW 8.5 mph13.7 kmh 28.94 in980.0 mb 0.00 in0.0 mm 0.00 in/hr0.0 mm/hr 0.00 in0.0 mm
04:32 AM 60.6°F15.9°C 45.8°F7.7°C 58% 6.5 mph SSW10.5 kmh SSW 8.5 mph13.7 kmh 28.94 in980.0 mb 0.00 in0.0 mm 0.00 in/hr0.0 mm/hr 0.00 in0.0 mm
04:31 AM 60.8°F16.0°C 46.0°F7.8°C 58% 3.6 mph SSW5.8 kmh SSW 11.6 mph18.7 kmh 28.94 in980.0 mb 0.00 in0.0 mm 0.00 in/hr0.0 mm/hr 0.00 in0.0 mm
04:30 AM 60.6°F15.9°C 45.8°F7.7°C 58% 8.3 mph SSW13.4 kmh SSW 11.6 mph18.7 kmh 28.94 in980.0 mb 0.00 in0.0 mm 0.00 in/hr0.0 mm/hr 0.00 in0.0 mm
04:29 AM 60.6°F15.9°C 45.8°F7.7°C 58% 5.4 mph SSW8.7 kmh SSW 11.6 mph18.7 kmh 28.94 in980.0 mb 0.00 in0.0 mm 0.00 in/hr0.0 mm/hr 0.00 in0.0 mm
04:28 AM 60.6°F15.9°C 45.8°F7.7°C 58% 6.0 mph SSW9.7 kmh SSW 11.6 mph18.7 kmh 28.94 in980.0 mb 0.00 in0.0 mm 0.00 in/hr0.0 mm/hr 0.00 in0.0 mm
04:27 AM 60.8°F16.0°C 45.5°F7.5°C 57% 3.8 mph SSW6.1 kmh SSW 11.6 mph18.7 kmh 28.94 in980.0 mb 0.00 in0.0 mm 0.00 in/hr0.0 mm/hr 0.00 in0.0 mm
04:26 AM 60.8°F16.0°C 45.5°F7.5°C 57% 6.3 mph SSW10.1 kmh SSW 11.6 mph18.7 kmh 28.94 in980.0 mb 0.00 in0.0 mm 0.00 in/hr0.0 mm/hr 0.00 in0.0 mm
04:25 AM 60.8°F16.0°C 45.5°F7.5°C 57% 6.9 mph SSW11.1 kmh SSW 11.6 mph18.7 kmh 28.94 in980.0 mb 0.00 in0.0 mm 0.00 in/hr0.0 mm/hr 0.00 in0.0 mm
04:24 AM 60.8°F16.0°C 45.5°F7.5°C 57% 3.6 mph SSW5.8 kmh SSW 11.6 mph18.7 kmh 28.94 in980.0 mb 0.00 in0.0 mm 0.00 in/hr0.0 mm/hr 0.00 in0.0 mm
04:23 AM 60.8°F16.0°C 45.5°F7.5°C 57% 4.3 mph SSW6.9 kmh SSW 11.6 mph18.7 kmh 28.94 in980.0 mb 0.00 in0.0 mm 0.00 in/hr0.0 mm/hr 0.00 in0.0 mm
04:22 AM 60.8°F16.0°C 45.5°F7.5°C 57% 8.5 mph SSW13.7 kmh SSW 11.6 mph18.7 kmh 28.94 in980.0 mb 0.00 in0.0 mm 0.00 in/hr0.0 mm/hr 0.00 in0.0 mm
04:21 AM 61.0°F16.1°C 45.6°F7.6°C 57% 9.4 mph SSW15.1 kmh SSW 9.4 mph15.1 kmh 28.94 in980.0 mb 0.00 in0.0 mm 0.00 in/hr0.0 mm/hr 0.00 in0.0 mm
04:20 AM 61.0°F16.1°C 46.1°F7.8°C 58% 3.1 mph SSW5.0 kmh SSW 8.1 mph13.0 kmh 28.94 in980.0 mb 0.00 in0.0 mm 0.00 in/hr0.0 mm/hr 0.00 in0.0 mm
04:19 AM 61.0°F16.1°C 45.6°F7.6°C 57% 7.8 mph SSW12.6 kmh SSW 7.8 mph12.6 kmh 28.94 in980.0 mb 0.00 in0.0 mm 0.00 in/hr0.0 mm/hr 0.00 in0.0 mm
04:18 AM 61.0°F16.1°C 45.6°F7.6°C 57% 5.1 mph SSW8.2 kmh SSW 7.8 mph12.6 kmh 28.94 in980.0 mb 0.00 in0.0 mm 0.00 in/hr0.0 mm/hr 0.00 in0.0 mm
04:17 AM 61.0°F16.1°C 45.6°F7.6°C 57% 2.7 mph SSW4.3 kmh SSW 7.8 mph12.6 kmh 28.94 in980.0 mb 0.00 in0.0 mm 0.00 in/hr0.0 mm/hr 0.00 in0.0 mm
04:16 AM 61.0°F16.1°C 45.6°F7.6°C 57% 4.3 mph SSW6.9 kmh SSW 7.8 mph12.6 kmh 28.94 in980.0 mb 0.00 in0.0 mm 0.00 in/hr0.0 mm/hr 0.00 in0.0 mm
04:15 AM 61.0°F16.1°C 45.6°F7.6°C 57% 0.9 mph SSW1.4 kmh SSW 7.8 mph12.6 kmh 28.94 in980.0 mb 0.00 in0.0 mm 0.00 in/hr0.0 mm/hr 0.00 in0.0 mm
04:14 AM 61.0°F16.1°C 45.6°F7.6°C 57% 6.7 mph SSW10.8 kmh SSW 7.8 mph12.6 kmh 28.94 in980.0 mb 0.00 in0.0 mm 0.00 in/hr0.0 mm/hr 0.00 in0.0 mm
04:13 AM 61.0°F16.1°C 45.6°F7.6°C 57% 2.0 mph SSW3.2 kmh SSW 7.6 mph12.2 kmh 28.94 in980.0 mb 0.00 in0.0 mm 0.00 in/hr0.0 mm/hr 0.00 in0.0 mm
04:12 AM 61.0°F16.1°C 45.6°F7.6°C 57% 5.1 mph SSW8.2 kmh SSW 7.6 mph12.2 kmh 28.94 in980.0 mb 0.00 in0.0 mm 0.00 in/hr0.0 mm/hr 0.00 in0.0 mm
04:11 AM 61.0°F16.1°C 45.6°F7.6°C 57% 3.8 mph SSW6.1 kmh SSW 7.6 mph12.2 kmh 28.94 in980.0 mb 0.00 in0.0 mm 0.00 in/hr0.0 mm/hr 0.00 in0.0 mm
04:10 AM 61.0°F16.1°C 45.6°F7.6°C 57% 6.3 mph SSW10.1 kmh SSW 7.6 mph12.2 kmh 28.94 in980.0 mb 0.00 in0.0 mm 0.00 in/hr0.0 mm/hr 0.00 in0.0 mm
04:09 AM 61.0°F16.1°C 45.6°F7.6°C 57% 3.8 mph SSW6.1 kmh SSW 7.6 mph12.2 kmh 28.94 in980.0 mb 0.00 in0.0 mm 0.00 in/hr0.0 mm/hr 0.00 in0.0 mm
04:08 AM 61.0°F16.1°C 45.6°F7.6°C 57% 4.0 mph SSW6.4 kmh SSW 7.6 mph12.2 kmh 28.94 in980.0 mb 0.00 in0.0 mm 0.00 in/hr0.0 mm/hr 0.00 in0.0 mm
04:07 AM 61.0°F16.1°C 45.6°F7.6°C 57% 5.6 mph SSW9.0 kmh SSW 7.6 mph12.2 kmh 28.94 in980.0 mb 0.00 in0.0 mm 0.00 in/hr0.0 mm/hr 0.00 in0.0 mm
04:06 AM 61.0°F16.1°C 45.6°F7.6°C 57% 5.8 mph SSW9.3 kmh SSW 7.6 mph12.2 kmh 28.94 in980.0 mb 0.00 in0.0 mm 0.00 in/hr0.0 mm/hr 0.00 in0.0 mm
04:05 AM 61.2°F16.2°C 45.8°F7.7°C 57% 5.4 mph SSW8.7 kmh SSW 7.6 mph12.2 kmh 28.94 in980.0 mb 0.00 in0.0 mm 0.00 in/hr0.0 mm/hr 0.00 in0.0 mm
04:04 AM 61.2°F16.2°C 45.8°F7.7°C 57% 4.7 mph SSW7.6 kmh SSW 7.6 mph12.2 kmh 28.95 in980.4 mb 0.00 in0.0 mm 0.00 in/hr0.0 mm/hr 0.00 in0.0 mm
04:03 AM 61.2°F16.2°C 45.8°F7.7°C 57% 5.4 mph SSW8.7 kmh SSW 7.6 mph12.2 kmh 28.95 in980.4 mb 0.00 in0.0 mm 0.00 in/hr0.0 mm/hr 0.00 in0.0 mm
04:02 AM 61.2°F16.2°C 45.8°F7.7°C 57% 4.7 mph SSW7.6 kmh SSW 7.6 mph12.2 kmh 28.95 in980.4 mb 0.00 in0.0 mm 0.00 in/hr0.0 mm/hr 0.00 in0.0 mm
04:01 AM 61.2°F16.2°C 45.8°F7.7°C 57% 6.0 mph SSW9.7 kmh SSW 6.3 mph10.1 kmh 28.95 in980.4 mb 0.00 in0.0 mm 0.00 in/hr0.0 mm/hr 0.00 in0.0 mm
04:00 AM 61.3°F16.3°C 46.0°F7.8°C 57% 4.5 mph SW7.2 kmh SW 6.3 mph10.1 kmh 28.95 in980.4 mb 0.00 in0.0 mm 0.00 in/hr0.0 mm/hr 0.00 in0.0 mm
03:59 AM 61.3°F16.3°C 46.0°F7.8°C 57% 4.5 mph SSW7.2 kmh SSW 6.3 mph10.1 kmh 28.95 in980.4 mb 0.00 in0.0 mm 0.00 in/hr0.0 mm/hr 0.00 in0.0 mm
03:58 AM 61.3°F16.3°C 46.0°F7.8°C 57% 1.8 mph SSW2.9 kmh SSW 6.3 mph10.1 kmh 28.94 in980.0 mb 0.00 in0.0 mm 0.00 in/hr0.0 mm/hr 0.00 in0.0 mm
03:57 AM 61.3°F16.3°C 46.0°F7.8°C 57% 1.1 mph SSW1.8 kmh SSW 6.3 mph10.1 kmh 28.95 in980.4 mb 0.00 in0.0 mm 0.00 in/hr0.0 mm/hr 0.00 in0.0 mm
03:56 AM 61.3°F16.3°C 46.0°F7.8°C 57% 3.8 mph SSW6.1 kmh SSW 6.3 mph10.1 kmh 28.95 in980.4 mb 0.00 in0.0 mm 0.00 in/hr0.0 mm/hr 0.00 in0.0 mm
03:55 AM 61.3°F16.3°C 46.0°F7.8°C 57% 1.6 mph SSW2.6 kmh SSW 6.3 mph10.1 kmh 28.95 in980.4 mb 0.00 in0.0 mm 0.00 in/hr0.0 mm/hr 0.00 in0.0 mm
03:54 AM 61.5°F16.4°C 46.1°F7.8°C 57% 2.2 mph SSW3.5 kmh SSW 6.3 mph10.1 kmh 28.95 in980.4 mb 0.00 in0.0 mm 0.00 in/hr0.0 mm/hr 0.00 in0.0 mm
03:53 AM 61.5°F16.4°C 46.1°F7.8°C 57% 3.1 mph SSW5.0 kmh SSW 6.3 mph10.1 kmh 28.95 in980.4 mb 0.00 in0.0 mm 0.00 in/hr0.0 mm/hr 0.00 in0.0 mm
03:52 AM 61.5°F16.4°C 46.1°F7.8°C 57% 4.3 mph SSW6.9 kmh SSW 6.3 mph10.1 kmh 28.94 in980.0 mb 0.00 in0.0 mm 0.00 in/hr0.0 mm/hr 0.00 in0.0 mm
03:51 AM 61.5°F16.4°C 46.1°F7.8°C 57% 6.3 mph SSW10.1 kmh SSW 6.3 mph10.1 kmh 28.95 in980.4 mb 0.00 in0.0 mm 0.00 in/hr0.0 mm/hr 0.00 in0.0 mm
03:50 AM 61.5°F16.4°C 46.1°F7.8°C 57% 3.1 mph SSW5.0 kmh SSW 6.0 mph9.7 kmh 28.94 in980.0 mb 0.00 in0.0 mm 0.00 in/hr0.0 mm/hr 0.00 in0.0 mm
03:49 AM 61.5°F16.4°C 46.1°F7.8°C 57% 3.6 mph SSW5.8 kmh SSW 5.1 mph8.2 kmh 28.95 in980.4 mb 0.00 in0.0 mm 0.00 in/hr0.0 mm/hr 0.00 in0.0 mm
03:48 AM 61.5°F16.4°C 46.1°F7.8°C 57% 3.4 mph SSW5.5 kmh SSW 5.1 mph8.2 kmh 28.95 in980.4 mb 0.00 in0.0 mm 0.00 in/hr0.0 mm/hr 0.00 in0.0 mm
03:47 AM 61.5°F16.4°C 46.1°F7.8°C 57% 2.2 mph SW3.5 kmh SW 7.4 mph11.9 kmh 28.95 in980.4 mb 0.00 in0.0 mm 0.00 in/hr0.0 mm/hr 0.00 in0.0 mm
03:46 AM 61.5°F16.4°C 46.1°F7.8°C 57% 2.9 mph SW4.7 kmh SW 7.4 mph11.9 kmh 28.94 in980.0 mb 0.00 in0.0 mm 0.00 in/hr0.0 mm/hr 0.00 in0.0 mm
03:45 AM 61.7°F16.5°C 46.3°F7.9°C 57% 1.8 mph SW2.9 kmh SW 7.4 mph11.9 kmh 28.95 in980.4 mb 0.00 in0.0 mm 0.00 in/hr0.0 mm/hr 0.00 in0.0 mm
03:44 AM 61.7°F16.5°C 46.3°F7.9°C 57% 1.1 mph SW1.8 kmh SW 7.4 mph11.9 kmh 28.94 in980.0 mb 0.00 in0.0 mm 0.00 in/hr0.0 mm/hr 0.00 in0.0 mm
03:43 AM 61.7°F16.5°C 46.3°F7.9°C 57% Calm Calm 7.4 mph11.9 kmh 28.94 in980.0 mb 0.00 in0.0 mm 0.00 in/hr0.0 mm/hr 0.00 in0.0 mm
03:42 AM 61.7°F16.5°C 46.3°F7.9°C 57% 3.4 mph SW5.5 kmh SW 7.4 mph11.9 kmh 28.94 in980.0 mb 0.00 in0.0 mm 0.00 in/hr0.0 mm/hr 0.00 in0.0 mm
03:41 AM 61.7°F16.5°C 46.3°F7.9°C 57% 4.0 mph SW6.4 kmh SW 7.4 mph11.9 kmh 28.95 in980.4 mb 0.00 in0.0 mm 0.00 in/hr0.0 mm/hr 0.00 in0.0 mm
03:40 AM 61.7°F16.5°C 46.3°F7.9°C 57% 2.0 mph SW3.2 kmh SW 7.4 mph11.9 kmh 28.95 in980.4 mb 0.00 in0.0 mm 0.00 in/hr0.0 mm/hr 0.00 in0.0 mm
03:39 AM 61.7°F16.5°C 46.3°F7.9°C 57% 2.5 mph SW4.0 kmh SW 7.4 mph11.9 kmh 28.94 in980.0 mb 0.00 in0.0 mm 0.00 in/hr0.0 mm/hr 0.00 in0.0 mm
03:38 AM 61.9°F16.6°C 46.5°F8.1°C 57% 3.1 mph SW5.0 kmh SW 7.4 mph11.9 kmh 28.95 in980.4 mb 0.00 in0.0 mm 0.00 in/hr0.0 mm/hr 0.00 in0.0 mm
03:37 AM 61.9°F16.6°C 46.5°F8.1°C 57% 2.0 mph SW3.2 kmh SW 7.2 mph11.6 kmh 28.94 in980.0 mb 0.00 in0.0 mm 0.00 in/hr0.0 mm/hr 0.00 in0.0 mm
03:36 AM 61.9°F16.6°C 46.5°F8.1°C 57% 6.0 mph SW9.7 kmh SW 6.0 mph9.7 kmh 28.95 in980.4 mb 0.00 in0.0 mm 0.00 in/hr0.0 mm/hr 0.00 in0.0 mm
03:35 AM 61.9°F16.6°C 46.5°F8.1°C 57% 4.9 mph SW7.9 kmh SW 4.9 mph7.9 kmh 28.94 in980.0 mb 0.00 in0.0 mm 0.00 in/hr0.0 mm/hr 0.00 in0.0 mm
03:34 AM 61.9°F16.6°C 46.5°F8.1°C 57% 3.6 mph SSW5.8 kmh SSW 5.4 mph8.7 kmh 28.94 in980.0 mb 0.00 in0.0 mm 0.00 in/hr0.0 mm/hr 0.00 in0.0 mm
03:33 AM 61.9°F16.6°C 46.5°F8.1°C 57% 2.7 mph SSW4.3 kmh SSW 5.6 mph9.0 kmh 28.94 in980.0 mb 0.00 in0.0 mm 0.00 in/hr0.0 mm/hr 0.00 in0.0 mm
03:32 AM 61.9°F16.6°C 46.5°F8.1°C 57% Calm Calm 5.6 mph9.0 kmh 28.94 in980.0 mb 0.00 in0.0 mm 0.00 in/hr0.0 mm/hr 0.00 in0.0 mm
03:31 AM 61.9°F16.6°C 46.5°F8.1°C 57% 3.6 mph SSW5.8 kmh SSW 6.0 mph9.7 kmh 28.94 in980.0 mb 0.00 in0.0 mm 0.00 in/hr0.0 mm/hr 0.00 in0.0 mm
03:30 AM 62.1°F16.7°C 46.6°F8.1°C 57% 1.3 mph SSW2.1 kmh SSW 6.0 mph9.7 kmh 28.94 in980.0 mb 0.00 in0.0 mm 0.00 in/hr0.0 mm/hr 0.00 in0.0 mm
03:29 AM 62.1°F16.7°C 46.6°F8.1°C 57% 2.7 mph SSW4.3 kmh SSW 6.0 mph9.7 kmh 28.94 in980.0 mb 0.00 in0.0 mm 0.00 in/hr0.0 mm/hr 0.00 in0.0 mm
03:28 AM 62.1°F16.7°C 46.6°F8.1°C 57% 0.9 mph SSW1.4 kmh SSW 6.0 mph9.7 kmh 28.94 in980.0 mb 0.00 in0.0 mm 0.00 in/hr0.0 mm/hr 0.00 in0.0 mm
03:27 AM 62.1°F16.7°C 46.6°F8.1°C 57% 3.1 mph SSW5.0 kmh SSW 6.0 mph9.7 kmh 28.94 in980.0 mb 0.00 in0.0 mm 0.00 in/hr0.0 mm/hr 0.00 in0.0 mm
03:26 AM 62.1°F16.7°C 46.6°F8.1°C 57% 4.3 mph SSW6.9 kmh SSW 6.0 mph9.7 kmh 28.94 in980.0 mb 0.00 in0.0 mm 0.00 in/hr0.0 mm/hr 0.00 in0.0 mm
03:25 AM 62.1°F16.7°C 46.6°F8.1°C 57% 3.4 mph SSW5.5 kmh SSW 6.0 mph9.7 kmh 28.94 in980.0 mb 0.00 in0.0 mm 0.00 in/hr0.0 mm/hr 0.00 in0.0 mm
03:24 AM 62.1°F16.7°C 46.6°F8.1°C 57% 2.9 mph SSW4.7 kmh SSW 7.2 mph11.6 kmh 28.94 in980.0 mb 0.00 in0.0 mm 0.00 in/hr0.0 mm/hr 0.00 in0.0 mm
03:23 AM 62.2°F16.8°C 46.8°F8.2°C 57% 1.8 mph SSW2.9 kmh SSW 7.2 mph11.6 kmh 28.94 in980.0 mb 0.00 in0.0 mm 0.00 in/hr0.0 mm/hr 0.00 in0.0 mm
03:22 AM 62.2°F16.8°C 46.8°F8.2°C 57% 2.9 mph SSW4.7 kmh SSW 7.2 mph11.6 kmh 28.94 in980.0 mb 0.00 in0.0 mm 0.00 in/hr0.0 mm/hr 0.00 in0.0 mm
03:21 AM 62.2°F16.8°C 46.8°F8.2°C 57% 3.1 mph SSW5.0 kmh SSW 7.2 mph11.6 kmh 28.94 in980.0 mb 0.00 in0.0 mm 0.00 in/hr0.0 mm/hr 0.00 in0.0 mm
03:20 AM 62.2°F16.8°C 46.8°F8.2°C 57% 1.6 mph SSW2.6 kmh SSW 7.2 mph11.6 kmh 28.94 in980.0 mb 0.00 in0.0 mm 0.00 in/hr0.0 mm/hr 0.00 in0.0 mm
03:19 AM 62.2°F16.8°C 46.8°F8.2°C 57% 3.8 mph SSW6.1 kmh SSW 7.2 mph11.6 kmh 28.94 in980.0 mb 0.00 in0.0 mm 0.00 in/hr0.0 mm/hr 0.00 in0.0 mm
03:18 AM 62.2°F16.8°C 46.3°F7.9°C 56% 2.7 mph SSW4.3 kmh SSW 7.2 mph11.6 kmh 28.94 in980.0 mb 0.00 in0.0 mm 0.00 in/hr0.0 mm/hr 0.00 in0.0 mm
03:17 AM 62.2°F16.8°C 46.3°F7.9°C 56% 1.3 mph SSW2.1 kmh SSW 7.2 mph11.6 kmh 28.94 in980.0 mb 0.00 in0.0 mm 0.00 in/hr0.0 mm/hr 0.00 in0.0 mm
03:16 AM 62.2°F16.8°C 46.3°F7.9°C 56% 4.7 mph SSW7.6 kmh SSW 7.2 mph11.6 kmh 28.94 in980.0 mb 0.00 in0.0 mm 0.00 in/hr0.0 mm/hr 0.00 in0.0 mm
03:15 AM 62.2°F16.8°C 46.3°F7.9°C 56% 1.3 mph SSW2.1 kmh SSW 7.2 mph11.6 kmh 28.94 in980.0 mb 0.00 in0.0 mm 0.00 in/hr0.0 mm/hr 0.00 in0.0 mm
03:14 AM 62.2°F16.8°C 46.3°F7.9°C 56% 6.3 mph SSW10.1 kmh SSW 6.7 mph10.8 kmh 28.94 in980.0 mb 0.00 in0.0 mm 0.00 in/hr0.0 mm/hr 0.00 in0.0 mm
03:13 AM 62.2°F16.8°C 46.3°F7.9°C 56% 2.9 mph SSW4.7 kmh SSW 6.7 mph10.8 kmh 28.94 in980.0 mb 0.00 in0.0 mm 0.00 in/hr0.0 mm/hr 0.00 in0.0 mm
03:12 AM 62.2°F16.8°C 46.3°F7.9°C 56% 4.0 mph SSW6.4 kmh SSW 6.7 mph10.8 kmh 28.94 in980.0 mb 0.00 in0.0 mm 0.00 in/hr0.0 mm/hr 0.00 in0.0 mm
03:11 AM 62.2°F16.8°C 46.3°F7.9°C 56% 2.7 mph SSW4.3 kmh SSW 6.7 mph10.8 kmh 28.94 in980.0 mb 0.00 in0.0 mm 0.00 in/hr0.0 mm/hr 0.00 in0.0 mm
03:10 AM 62.2°F16.8°C 46.3°F7.9°C 56% 3.6 mph SSW5.8 kmh SSW 6.7 mph10.8 kmh 28.94 in980.0 mb 0.00 in0.0 mm 0.00 in/hr0.0 mm/hr 0.00 in0.0 mm
03:09 AM 62.2°F16.8°C 46.3°F7.9°C 56% 3.1 mph SSW5.0 kmh SSW 6.7 mph10.8 kmh 28.94 in980.0 mb 0.00 in0.0 mm 0.00 in/hr0.0 mm/hr 0.00 in0.0 mm
03:08 AM 62.2°F16.8°C 46.5°F8.1°C 56% 5.8 mph SSW9.3 kmh SSW 6.7 mph10.8 kmh 28.94 in980.0 mb 0.00 in0.0 mm 0.00 in/hr0.0 mm/hr 0.00 in0.0 mm
03:07 AM 62.4°F16.9°C 46.5°F8.1°C 56% 6.5 mph SSW10.5 kmh SSW 6.7 mph10.8 kmh 28.94 in980.0 mb 0.00 in0.0 mm 0.00 in/hr0.0 mm/hr 0.00 in0.0 mm
03:06 AM 62.2°F16.8°C 46.3°F7.9°C 56% 4.7 mph SSW7.6 kmh SSW 6.7 mph10.8 kmh 28.94 in980.0 mb 0.00 in0.0 mm 0.00 in/hr0.0 mm/hr 0.00 in0.0 mm
03:05 AM 62.4°F16.9°C 46.5°F8.1°C 56% 4.7 mph SSW7.6 kmh SSW 5.6 mph9.0 kmh 28.94 in980.0 mb 0.00 in0.0 mm 0.00 in/hr0.0 mm/hr 0.00 in0.0 mm
03:04 AM 62.4°F16.9°C 46.5°F8.1°C 56% 4.0 mph SSW6.4 kmh SSW 5.6 mph9.0 kmh 28.94 in980.0 mb 0.00 in0.0 mm 0.00 in/hr0.0 mm/hr 0.00 in0.0 mm
03:03 AM 62.4°F16.9°C 46.5°F8.1°C 56% 1.8 mph SSW2.9 kmh SSW 5.6 mph9.0 kmh 28.94 in980.0 mb 0.00 in0.0 mm 0.00 in/hr0.0 mm/hr 0.00 in0.0 mm
03:02 AM 62.4°F16.9°C 46.5°F8.1°C 56% 4.5 mph SSW7.2 kmh SSW 6.5 mph10.5 kmh 28.94 in980.0 mb 0.00 in0.0 mm 0.00 in/hr0.0 mm/hr 0.00 in0.0 mm
03:01 AM 62.4°F16.9°C 46.5°F8.1°C 56% Calm Calm 6.5 mph10.5 kmh 28.94 in980.0 mb 0.00 in0.0 mm 0.00 in/hr0.0 mm/hr 0.00 in0.0 mm
03:00 AM 62.4°F16.9°C 46.5°F8.1°C 56% 1.6 mph SSW2.6 kmh SSW 6.5 mph10.5 kmh 28.94 in980.0 mb 0.00 in0.0 mm 0.00 in/hr0.0 mm/hr 0.00 in0.0 mm
02:59 AM 62.4°F16.9°C 46.5°F8.1°C 56% 2.5 mph SSW4.0 kmh SSW 7.6 mph12.2 kmh 28.94 in980.0 mb 0.00 in0.0 mm 0.00 in/hr0.0 mm/hr 0.00 in0.0 mm
02:58 AM 62.4°F16.9°C 46.5°F8.1°C 56% 2.7 mph SSW4.3 kmh SSW 7.6 mph12.2 kmh 28.94 in980.0 mb 0.00 in0.0 mm 0.00 in/hr0.0 mm/hr 0.00 in0.0 mm
02:57 AM 62.4°F16.9°C 46.5°F8.1°C 56% 3.4 mph SSW5.5 kmh SSW 7.6 mph12.2 kmh 28.94 in980.0 mb 0.00 in0.0 mm 0.00 in/hr0.0 mm/hr 0.00 in0.0 mm
02:56 AM 62.4°F16.9°C 46.5°F8.1°C 56% 4.3 mph SSW6.9 kmh SSW 7.6 mph12.2 kmh 28.94 in980.0 mb 0.00 in0.0 mm 0.00 in/hr0.0 mm/hr 0.00 in0.0 mm
02:55 AM 62.4°F16.9°C 46.5°F8.1°C 56% 0.9 mph SSW1.4 kmh SSW 7.6 mph12.2 kmh 28.94 in980.0 mb 0.00 in0.0 mm 0.00 in/hr0.0 mm/hr 0.00 in0.0 mm
02:54 AM 62.4°F16.9°C 46.5°F8.1°C 56% 1.1 mph SSW1.8 kmh SSW 7.6 mph12.2 kmh 28.94 in980.0 mb 0.00 in0.0 mm 0.00 in/hr0.0 mm/hr 0.00 in0.0 mm
02:53 AM 62.4°F16.9°C 46.5°F8.1°C 56% 1.6 mph SSW2.6 kmh SSW 7.6 mph12.2 kmh 28.94 in980.0 mb 0.00 in0.0 mm 0.00 in/hr0.0 mm/hr 0.00 in0.0 mm
02:52 AM 62.4°F16.9°C 46.5°F8.1°C 56% 6.5 mph SSW10.5 kmh SSW 7.6 mph12.2 kmh 28.94 in980.0 mb 0.00 in0.0 mm 0.00 in/hr0.0 mm/hr 0.00 in0.0 mm
02:51 AM 62.4°F16.9°C 46.5°F8.1°C 56% 4.7 mph SSW7.6 kmh SSW 7.6 mph12.2 kmh 28.94 in980.0 mb 0.00 in0.0 mm 0.00 in/hr0.0 mm/hr 0.00 in0.0 mm
02:50 AM 62.4°F16.9°C 46.5°F8.1°C 56% 0.7 mph SSW1.1 kmh SSW 7.6 mph12.2 kmh 28.94 in980.0 mb 0.00 in0.0 mm 0.00 in/hr0.0 mm/hr 0.00 in0.0 mm
02:49 AM 62.4°F16.9°C 46.5°F8.1°C 56% 3.8 mph SSW6.1 kmh SSW 7.2 mph11.6 kmh 28.94 in980.0 mb 0.00 in0.0 mm 0.00 in/hr0.0 mm/hr 0.00 in0.0 mm
02:48 AM 62.4°F16.9°C 46.5°F8.1°C 56% 4.3 mph SSW6.9 kmh SSW 7.2 mph11.6 kmh 28.94 in980.0 mb 0.00 in0.0 mm 0.00 in/hr0.0 mm/hr 0.00 in0.0 mm
02:47 AM 62.4°F16.9°C 46.5°F8.1°C 56% 0.9 mph SSW1.4 kmh SSW 7.2 mph11.6 kmh 28.94 in980.0 mb 0.00 in0.0 mm 0.00 in/hr0.0 mm/hr 0.00 in0.0 mm
02:46 AM 62.4°F16.9°C 46.5°F8.1°C 56% 3.8 mph SSW6.1 kmh SSW 7.2 mph11.6 kmh 28.94 in980.0 mb 0.00 in0.0 mm 0.00 in/hr0.0 mm/hr 0.00 in0.0 mm
02:45 AM 62.4°F16.9°C 46.5°F8.1°C 56% 5.8 mph SSW9.3 kmh SSW 7.2 mph11.6 kmh 28.94 in980.0 mb 0.00 in0.0 mm 0.00 in/hr0.0 mm/hr 0.00 in0.0 mm
02:44 AM 62.4°F16.9°C 46.5°F8.1°C 56% 4.5 mph SSW7.2 kmh SSW 6.9 mph11.1 kmh 28.94 in980.0 mb 0.00 in0.0 mm 0.00 in/hr0.0 mm/hr 0.00 in0.0 mm
02:43 AM 62.4°F16.9°C 46.5°F8.1°C 56% 2.5 mph SSW4.0 kmh SSW 6.9 mph11.1 kmh 28.94 in980.0 mb 0.00 in0.0 mm 0.00 in/hr0.0 mm/hr 0.00 in0.0 mm
02:42 AM 62.4°F16.9°C 46.5°F8.1°C 56% 4.5 mph SSW7.2 kmh SSW 6.9 mph11.1 kmh 28.95 in980.4 mb 0.00 in0.0 mm 0.00 in/hr0.0 mm/hr 0.00 in0.0 mm
02:41 AM 62.4°F16.9°C 46.5°F8.1°C 56% 3.6 mph SSW5.8 kmh SSW 6.9 mph11.1 kmh 28.94 in980.0 mb 0.00 in0.0 mm 0.00 in/hr0.0 mm/hr 0.00 in0.0 mm
02:40 AM 62.4°F16.9°C 46.5°F8.1°C 56% 3.8 mph SSW6.1 kmh SSW 5.6 mph9.0 kmh 28.94 in980.0 mb 0.00 in0.0 mm 0.00 in/hr0.0 mm/hr 0.00 in0.0 mm
02:39 AM 62.4°F16.9°C 46.5°F8.1°C 56% 4.7 mph SSW7.6 kmh SSW 5.6 mph9.0 kmh 28.95 in980.4 mb 0.00 in0.0 mm 0.00 in/hr0.0 mm/hr 0.00 in0.0 mm
02:38 AM 62.4°F16.9°C 46.5°F8.1°C 56% 3.8 mph SSW6.1 kmh SSW 5.6 mph9.0 kmh 28.95 in980.4 mb 0.00 in0.0 mm 0.00 in/hr0.0 mm/hr 0.00 in0.0 mm
02:37 AM 62.4°F16.9°C 46.5°F8.1°C 56% 4.7 mph SSW7.6 kmh SSW 5.6 mph9.0 kmh 28.95 in980.4 mb 0.00 in0.0 mm 0.00 in/hr0.0 mm/hr 0.00 in0.0 mm
02:36 AM 62.6°F17.0°C 46.6°F8.1°C 56% 2.9 mph SSW4.7 kmh SSW 5.6 mph9.0 kmh 28.95 in980.4 mb 0.00 in0.0 mm 0.00 in/hr0.0 mm/hr 0.00 in0.0 mm
02:35 AM 62.6°F17.0°C 46.6°F8.1°C 56% 3.1 mph SSW5.0 kmh SSW 5.6 mph9.0 kmh 28.94 in980.0 mb 0.00 in0.0 mm 0.00 in/hr0.0 mm/hr 0.00 in0.0 mm
02:34 AM 62.6°F17.0°C 46.6°F8.1°C 56% 4.5 mph SSW7.2 kmh SSW 5.6 mph9.0 kmh 28.95 in980.4 mb 0.00 in0.0 mm 0.00 in/hr0.0 mm/hr 0.00 in0.0 mm
02:33 AM 62.6°F17.0°C 46.6°F8.1°C 56% 4.0 mph SSW6.4 kmh SSW 5.6 mph9.0 kmh 28.95 in980.4 mb 0.00 in0.0 mm 0.00 in/hr0.0 mm/hr 0.00 in0.0 mm
02:32 AM 62.6°F17.0°C 46.6°F8.1°C 56% 0.9 mph SSW1.4 kmh SSW 4.3 mph6.9 kmh 28.95 in980.4 mb 0.00 in0.0 mm 0.00 in/hr0.0 mm/hr 0.00 in0.0 mm
02:31 AM 62.8°F17.1°C 46.8°F8.2°C 56% 0.9 mph SSW1.4 kmh SSW 4.7 mph7.6 kmh 28.95 in980.4 mb 0.00 in0.0 mm 0.00 in/hr0.0 mm/hr 0.00 in0.0 mm
02:30 AM 62.6°F17.0°C 46.6°F8.1°C 56% 2.7 mph SSW4.3 kmh SSW 4.7 mph7.6 kmh 28.95 in980.4 mb 0.00 in0.0 mm 0.00 in/hr0.0 mm/hr 0.00 in0.0 mm
02:29 AM 62.8°F17.1°C 46.8°F8.2°C 56% 1.6 mph SSW2.6 kmh SSW 4.7 mph7.6 kmh 28.95 in980.4 mb 0.00 in0.0 mm 0.00 in/hr0.0 mm/hr 0.00 in0.0 mm
02:28 AM 62.8°F17.1°C 46.8°F8.2°C 56% 0.9 mph SSW1.4 kmh SSW 4.7 mph7.6 kmh 28.95 in980.4 mb 0.00 in0.0 mm 0.00 in/hr0.0 mm/hr 0.00 in0.0 mm
02:27 AM 62.8°F17.1°C 46.8°F8.2°C 56% 1.3 mph SSW2.1 kmh SSW 4.7 mph7.6 kmh 28.95 in980.4 mb 0.00 in0.0 mm 0.00 in/hr0.0 mm/hr 0.00 in0.0 mm
02:26 AM 62.8°F17.1°C 46.8°F8.2°C 56% 2.0 mph SSW3.2 kmh SSW 4.7 mph7.6 kmh 28.95 in980.4 mb 0.00 in0.0 mm 0.00 in/hr0.0 mm/hr 0.00 in0.0 mm
02:25 AM 62.8°F17.1°C 46.8°F8.2°C 56% 0.2 mph SSW0.3 kmh SSW 4.7 mph7.6 kmh 28.95 in980.4 mb 0.00 in0.0 mm 0.00 in/hr0.0 mm/hr 0.00 in0.0 mm
02:24 AM 62.8°F17.1°C 46.8°F8.2°C 56% 2.0 mph SSW3.2 kmh SSW 4.7 mph7.6 kmh 28.95 in980.4 mb 0.00 in0.0 mm 0.00 in/hr0.0 mm/hr 0.00 in0.0 mm
02:23 AM 62.8°F17.1°C 46.8°F8.2°C 56% 2.7 mph SSW4.3 kmh SSW 4.7 mph7.6 kmh 28.95 in980.4 mb 0.00 in0.0 mm 0.00 in/hr0.0 mm/hr 0.00 in0.0 mm
02:22 AM 62.8°F17.1°C 46.8°F8.2°C 56% 4.7 mph SSW7.6 kmh SSW 4.7 mph7.6 kmh 28.95 in980.4 mb 0.00 in0.0 mm 0.00 in/hr0.0 mm/hr 0.00 in0.0 mm
02:21 AM 63.0°F17.2°C 46.9°F8.3°C 56% 2.7 mph SSW4.3 kmh SSW 4.7 mph7.6 kmh 28.95 in980.4 mb 0.00 in0.0 mm 0.00 in/hr0.0 mm/hr 0.00 in0.0 mm
02:20 AM 63.0°F17.2°C 46.9°F8.3°C 56% 0.9 mph SSW1.4 kmh SSW 4.7 mph7.6 kmh 28.95 in980.4 mb 0.00 in0.0 mm 0.00 in/hr0.0 mm/hr 0.00 in0.0 mm
02:19 AM 63.0°F17.2°C 46.9°F8.3°C 56% 1.1 mph SSW1.8 kmh SSW 4.7 mph7.6 kmh 28.95 in980.4 mb 0.00 in0.0 mm 0.00 in/hr0.0 mm/hr 0.00 in0.0 mm
02:18 AM 63.0°F17.2°C 46.9°F8.3°C 56% 4.0 mph SSW6.4 kmh SSW 4.0 mph6.4 kmh 28.96 in980.7 mb 0.00 in0.0 mm 0.00 in/hr0.0 mm/hr 0.00 in0.0 mm
02:17 AM 63.0°F17.2°C 46.9°F8.3°C 56% 1.1 mph SW1.8 kmh SW 3.1 mph5.0 kmh 28.95 in980.4 mb 0.00 in0.0 mm 0.00 in/hr0.0 mm/hr 0.00 in0.0 mm
02:16 AM 63.0°F17.2°C 46.9°F8.3°C 56% 2.0 mph SW3.2 kmh SW 3.4 mph5.5 kmh 28.95 in980.4 mb 0.00 in0.0 mm 0.00 in/hr0.0 mm/hr 0.00 in0.0 mm
02:15 AM 63.0°F17.2°C 46.9°F8.3°C 56% 0.9 mph SW1.4 kmh SW 3.6 mph5.8 kmh 28.96 in980.7 mb 0.00 in0.0 mm 0.00 in/hr0.0 mm/hr 0.00 in0.0 mm
02:14 AM 63.0°F17.2°C 46.9°F8.3°C 56% 0.7 mph SW1.1 kmh SW 3.6 mph5.8 kmh 28.96 in980.7 mb 0.00 in0.0 mm 0.00 in/hr0.0 mm/hr 0.00 in0.0 mm
02:13 AM 63.0°F17.2°C 46.9°F8.3°C 56% Calm Calm 3.6 mph5.8 kmh 28.96 in980.7 mb 0.00 in0.0 mm 0.00 in/hr0.0 mm/hr 0.00 in0.0 mm
02:12 AM 63.0°F17.2°C 46.9°F8.3°C 56% Calm Calm 4.5 mph7.2 kmh 28.96 in980.7 mb 0.00 in0.0 mm 0.00 in/hr0.0 mm/hr 0.00 in0.0 mm
02:11 AM 63.1°F17.3°C 46.6°F8.1°C 55% 1.1 mph SW1.8 kmh SW 4.5 mph7.2 kmh 28.96 in980.7 mb 0.00 in0.0 mm 0.00 in/hr0.0 mm/hr 0.00 in0.0 mm
02:10 AM 63.1°F17.3°C 46.6°F8.1°C 55% Calm Calm 4.5 mph7.2 kmh 28.96 in980.7 mb 0.00 in0.0 mm 0.00 in/hr0.0 mm/hr 0.00 in0.0 mm
02:09 AM 63.1°F17.3°C 46.6°F8.1°C 55% Calm Calm 4.5 mph7.2 kmh 28.96 in980.7 mb 0.00 in0.0 mm 0.00 in/hr0.0 mm/hr 0.00 in0.0 mm
02:08 AM 63.1°F17.3°C 46.6°F8.1°C 55% Calm Calm 4.5 mph7.2 kmh 28.96 in980.7 mb 0.00 in0.0 mm 0.00 in/hr0.0 mm/hr 0.00 in0.0 mm
02:07 AM 63.1°F17.3°C 46.6°F8.1°C 55% 3.4 mph SSW5.5 kmh SSW 4.5 mph7.2 kmh 28.96 in980.7 mb 0.00 in0.0 mm 0.00 in/hr0.0 mm/hr 0.00 in0.0 mm
02:06 AM 63.1°F17.3°C 46.6°F8.1°C 55% 1.3 mph SSW2.1 kmh SSW 4.5 mph7.2 kmh 28.96 in980.7 mb 0.00 in0.0 mm 0.00 in/hr0.0 mm/hr 0.00 in0.0 mm
02:05 AM 63.1°F17.3°C 46.6°F8.1°C 55% Calm Calm 5.1 mph8.2 kmh 28.96 in980.7 mb 0.00 in0.0 mm 0.00 in/hr0.0 mm/hr 0.00 in0.0 mm
02:04 AM 63.1°F17.3°C 46.6°F8.1°C 55% Calm Calm 6.0 mph9.7 kmh 28.96 in980.7 mb 0.00 in0.0 mm 0.00 in/hr0.0 mm/hr 0.00 in0.0 mm
02:03 AM 63.1°F17.3°C 46.6°F8.1°C 55% 2.2 mph SW3.5 kmh SW 6.0 mph9.7 kmh 28.96 in980.7 mb 0.00 in0.0 mm 0.00 in/hr0.0 mm/hr 0.00 in0.0 mm
02:02 AM 63.1°F17.3°C 46.6°F8.1°C 55% Calm Calm 6.0 mph9.7 kmh 28.96 in980.7 mb 0.00 in0.0 mm 0.00 in/hr0.0 mm/hr 0.00 in0.0 mm
02:01 AM 63.1°F17.3°C 46.6°F8.1°C 55% 1.6 mph SW2.6 kmh SW 6.0 mph9.7 kmh 28.96 in980.7 mb 0.00 in0.0 mm 0.00 in/hr0.0 mm/hr 0.00 in0.0 mm
02:00 AM 63.1°F17.3°C 46.6°F8.1°C 55% Calm Calm 6.5 mph10.5 kmh 28.96 in980.7 mb 0.00 in0.0 mm 0.00 in/hr0.0 mm/hr 0.00 in0.0 mm
01:59 AM 63.1°F17.3°C 46.6°F8.1°C 55% 1.6 mph SW2.6 kmh SW 6.9 mph11.1 kmh 28.96 in980.7 mb 0.00 in0.0 mm 0.00 in/hr0.0 mm/hr 0.00 in0.0 mm
01:58 AM 63.3°F17.4°C 46.8°F8.2°C 55% 2.5 mph SW4.0 kmh SW 6.9 mph11.1 kmh 28.96 in980.7 mb 0.00 in0.0 mm 0.00 in/hr0.0 mm/hr 0.00 in0.0 mm
01:57 AM 63.3°F17.4°C 46.8°F8.2°C 55% 3.1 mph SW5.0 kmh SW 6.9 mph11.1 kmh 28.96 in980.7 mb 0.00 in0.0 mm 0.00 in/hr0.0 mm/hr 0.00 in0.0 mm
01:56 AM 63.3°F17.4°C 46.8°F8.2°C 55% 2.9 mph SW4.7 kmh SW 6.9 mph11.1 kmh 28.96 in980.7 mb 0.00 in0.0 mm 0.00 in/hr0.0 mm/hr 0.00 in0.0 mm
01:55 AM 63.3°F17.4°C 46.8°F8.2°C 55% 6.0 mph SW9.7 kmh SW 6.9 mph11.1 kmh 28.96 in980.7 mb 0.00 in0.0 mm 0.00 in/hr0.0 mm/hr 0.00 in0.0 mm
01:54 AM 63.3°F17.4°C 46.8°F8.2°C 55% 3.6 mph SW5.8 kmh SW 6.9 mph11.1 kmh 28.96 in980.7 mb 0.00 in0.0 mm 0.00 in/hr0.0 mm/hr 0.00 in0.0 mm
01:53 AM 63.3°F17.4°C 46.8°F8.2°C 55% 1.6 mph SW2.6 kmh SW 6.9 mph11.1 kmh 28.96 in980.7 mb 0.00 in0.0 mm 0.00 in/hr0.0 mm/hr 0.00 in0.0 mm
01:52 AM 63.3°F17.4°C 46.8°F8.2°C 55% 2.5 mph SW4.0 kmh SW 6.9 mph11.1 kmh 28.96 in980.7 mb 0.00 in0.0 mm 0.00 in/hr0.0 mm/hr 0.00 in0.0 mm
01:51 AM 63.3°F17.4°C 46.8°F8.2°C 55% 2.2 mph SSW3.5 kmh SSW 6.9 mph11.1 kmh 28.96 in980.7 mb 0.00 in0.0 mm 0.00 in/hr0.0 mm/hr 0.00 in0.0 mm
01:50 AM 63.3°F17.4°C 46.8°F8.2°C 55% 3.1 mph SSW5.0 kmh SSW 6.9 mph11.1 kmh 28.96 in980.7 mb 0.00 in0.0 mm 0.00 in/hr0.0 mm/hr 0.00 in0.0 mm
01:49 AM 63.3°F17.4°C 46.8°F8.2°C 55% Calm Calm 7.6 mph12.2 kmh 28.96 in980.7 mb 0.00 in0.0 mm 0.00 in/hr0.0 mm/hr 0.00 in0.0 mm
01:48 AM 63.3°F17.4°C 46.8°F8.2°C 55% 5.8 mph SSW9.3 kmh SSW 7.6 mph12.2 kmh 28.96 in980.7 mb 0.00 in0.0 mm 0.00 in/hr0.0 mm/hr 0.00 in0.0 mm
01:47 AM 63.3°F17.4°C 46.8°F8.2°C 55% 3.1 mph SSW5.0 kmh SSW 7.6 mph12.2 kmh 28.96 in980.7 mb 0.00 in0.0 mm 0.00 in/hr0.0 mm/hr 0.00 in0.0 mm
01:46 AM 63.3°F17.4°C 46.8°F8.2°C 55% 3.4 mph SSW5.5 kmh SSW 7.6 mph12.2 kmh 28.96 in980.7 mb 0.00 in0.0 mm 0.00 in/hr0.0 mm/hr 0.00 in0.0 mm
01:45 AM 63.3°F17.4°C 46.8°F8.2°C 55% 1.6 mph SSW2.6 kmh SSW 7.6 mph12.2 kmh 28.96 in980.7 mb 0.00 in0.0 mm 0.00 in/hr0.0 mm/hr 0.00 in0.0 mm
01:44 AM 63.5°F17.5°C 46.9°F8.3°C 55% 3.4 mph SSW5.5 kmh SSW 7.6 mph12.2 kmh 28.96 in980.7 mb 0.00 in0.0 mm 0.00 in/hr0.0 mm/hr 0.00 in0.0 mm
01:43 AM 63.3°F17.4°C 46.8°F8.2°C 55% 3.8 mph SSW6.1 kmh SSW 7.6 mph12.2 kmh 28.96 in980.7 mb 0.00 in0.0 mm 0.00 in/hr0.0 mm/hr 0.00 in0.0 mm
01:42 AM 63.5°F17.5°C 46.9°F8.3°C 55% 2.2 mph SSW3.5 kmh SSW 7.6 mph12.2 kmh 28.96 in980.7 mb 0.00 in0.0 mm 0.00 in/hr0.0 mm/hr 0.00 in0.0 mm
01:41 AM 63.5°F17.5°C 46.9°F8.3°C 55% 3.1 mph SSW5.0 kmh SSW 7.6 mph12.2 kmh 28.96 in980.7 mb 0.00 in0.0 mm 0.00 in/hr0.0 mm/hr 0.00 in0.0 mm
01:40 AM 63.5°F17.5°C 46.9°F8.3°C 55% 7.6 mph SSW12.2 kmh SSW 7.6 mph12.2 kmh 28.96 in980.7 mb 0.00 in0.0 mm 0.00 in/hr0.0 mm/hr 0.00 in0.0 mm
01:39 AM 63.5°F17.5°C 46.9°F8.3°C 55% 6.5 mph SSW10.5 kmh SSW 7.4 mph11.9 kmh 28.96 in980.7 mb 0.00 in0.0 mm 0.00 in/hr0.0 mm/hr 0.00 in0.0 mm
01:38 AM 63.5°F17.5°C 46.9°F8.3°C 55% 4.7 mph SSW7.6 kmh SSW 7.4 mph11.9 kmh 28.96 in980.7 mb 0.00 in0.0 mm 0.00 in/hr0.0 mm/hr 0.00 in0.0 mm
01:37 AM 63.5°F17.5°C 46.9°F8.3°C 55% 4.9 mph SSW7.9 kmh SSW 7.4 mph11.9 kmh 28.96 in980.7 mb 0.00 in0.0 mm 0.00 in/hr0.0 mm/hr 0.00 in0.0 mm
01:36 AM 63.5°F17.5°C 46.9°F8.3°C 55% 2.9 mph SSW4.7 kmh SSW 7.2 mph11.6 kmh 28.96 in980.7 mb 0.00 in0.0 mm 0.00 in/hr0.0 mm/hr 0.00 in0.0 mm
01:35 AM 63.5°F17.5°C 46.9°F8.3°C 55% 4.0 mph SSW6.4 kmh SSW 7.4 mph11.9 kmh 28.96 in980.7 mb 0.00 in0.0 mm 0.00 in/hr0.0 mm/hr 0.00 in0.0 mm
01:34 AM 63.5°F17.5°C 46.9°F8.3°C 55% 4.7 mph SSW7.6 kmh SSW 7.4 mph11.9 kmh 28.96 in980.7 mb 0.00 in0.0 mm 0.00 in/hr0.0 mm/hr 0.00 in0.0 mm
01:33 AM 63.5°F17.5°C 46.9°F8.3°C 55% 4.5 mph SSW7.2 kmh SSW 7.4 mph11.9 kmh 28.96 in980.7 mb 0.00 in0.0 mm 0.00 in/hr0.0 mm/hr 0.00 in0.0 mm
01:32 AM 63.5°F17.5°C 46.9°F8.3°C 55% 7.2 mph SSW11.6 kmh SSW 7.4 mph11.9 kmh 28.96 in980.7 mb 0.00 in0.0 mm 0.00 in/hr0.0 mm/hr 0.00 in0.0 mm
01:31 AM 63.7°F17.6°C 47.1°F8.4°C 55% 4.5 mph SSW7.2 kmh SSW 7.4 mph11.9 kmh 28.96 in980.7 mb 0.00 in0.0 mm 0.00 in/hr0.0 mm/hr 0.00 in0.0 mm
01:30 AM 63.7°F17.6°C 47.1°F8.4°C 55% 5.6 mph SSW9.0 kmh SSW 7.4 mph11.9 kmh 28.96 in980.7 mb 0.00 in0.0 mm 0.00 in/hr0.0 mm/hr 0.00 in0.0 mm
01:29 AM 63.7°F17.6°C 47.1°F8.4°C 55% 3.6 mph SSW5.8 kmh SSW 7.4 mph11.9 kmh 28.96 in980.7 mb 0.00 in0.0 mm 0.00 in/hr0.0 mm/hr 0.00 in0.0 mm
01:28 AM 63.7°F17.6°C 47.1°F8.4°C 55% 3.1 mph SSW5.0 kmh SSW 7.4 mph11.9 kmh 28.97 in981.0 mb 0.00 in0.0 mm 0.00 in/hr0.0 mm/hr 0.00 in0.0 mm
01:27 AM 63.7°F17.6°C 47.1°F8.4°C 55% 2.5 mph SSW4.0 kmh SSW 7.4 mph11.9 kmh 28.97 in981.0 mb 0.00 in0.0 mm 0.00 in/hr0.0 mm/hr 0.00 in0.0 mm
01:26 AM 63.7°F17.6°C 47.1°F8.4°C 55% 2.9 mph SSW4.7 kmh SSW 7.4 mph11.9 kmh 28.97 in981.0 mb 0.00 in0.0 mm 0.00 in/hr0.0 mm/hr 0.00 in0.0 mm
01:25 AM 63.7°F17.6°C 47.1°F8.4°C 55% 4.9 mph SSW7.9 kmh SSW 6.0 mph9.7 kmh 28.96 in980.7 mb 0.00 in0.0 mm 0.00 in/hr0.0 mm/hr 0.00 in0.0 mm
01:24 AM 63.7°F17.6°C 47.1°F8.4°C 55% 3.8 mph SSW6.1 kmh SSW 6.0 mph9.7 kmh 28.97 in981.0 mb 0.00 in0.0 mm 0.00 in/hr0.0 mm/hr 0.00 in0.0 mm
01:23 AM 63.7°F17.6°C 47.1°F8.4°C 55% 4.0 mph SSW6.4 kmh SSW 6.0 mph9.7 kmh 28.96 in980.7 mb 0.00 in0.0 mm 0.00 in/hr0.0 mm/hr 0.00 in0.0 mm
01:22 AM 63.7°F17.6°C 47.1°F8.4°C 55% 0.9 mph SSW1.4 kmh SSW 6.0 mph9.7 kmh 28.97 in981.0 mb 0.00 in0.0 mm 0.00 in/hr0.0 mm/hr 0.00 in0.0 mm
01:21 AM 63.7°F17.6°C 47.1°F8.4°C 55% 3.1 mph SSW5.0 kmh SSW 6.0 mph9.7 kmh 28.97 in981.0 mb 0.00 in0.0 mm 0.00 in/hr0.0 mm/hr 0.00 in0.0 mm
01:20 AM 63.7°F17.6°C 47.1°F8.4°C 55% 0.7 mph SSW1.1 kmh SSW 6.0 mph9.7 kmh 28.96 in980.7 mb 0.00 in0.0 mm 0.00 in/hr0.0 mm/hr 0.00 in0.0 mm
01:19 AM 63.7°F17.6°C 47.1°F8.4°C 55% 2.9 mph SSW4.7 kmh SSW 6.0 mph9.7 kmh 28.97 in981.0 mb 0.00 in0.0 mm 0.00 in/hr0.0 mm/hr 0.00 in0.0 mm
01:18 AM 63.7°F17.6°C 47.1°F8.4°C 55% 2.7 mph SSW4.3 kmh SSW 5.6 mph9.0 kmh 28.97 in981.0 mb 0.00 in0.0 mm 0.00 in/hr0.0 mm/hr 0.00 in0.0 mm
01:17 AM 63.7°F17.6°C 47.1°F8.4°C 55% 2.2 mph SSW3.5 kmh SSW 6.0 mph9.7 kmh 28.97 in981.0 mb 0.00 in0.0 mm 0.00 in/hr0.0 mm/hr 0.00 in0.0 mm
01:16 AM 63.7°F17.6°C 47.1°F8.4°C 55% 2.5 mph SSW4.0 kmh SSW 6.0 mph9.7 kmh 28.97 in981.0 mb 0.00 in0.0 mm 0.00 in/hr0.0 mm/hr 0.00 in0.0 mm
01:15 AM 63.7°F17.6°C 47.1°F8.4°C 55% 2.0 mph SSW3.2 kmh SSW 6.5 mph10.5 kmh 28.97 in981.0 mb 0.00 in0.0 mm 0.00 in/hr0.0 mm/hr 0.00 in0.0 mm
01:14 AM 63.7°F17.6°C 47.1°F8.4°C 55% 3.8 mph SSW6.1 kmh SSW 6.5 mph10.5 kmh 28.97 in981.0 mb 0.00 in0.0 mm 0.00 in/hr0.0 mm/hr 0.00 in0.0 mm
01:13 AM 63.7°F17.6°C 47.1°F8.4°C 55% 2.7 mph SSW4.3 kmh SSW 6.5 mph10.5 kmh 28.97 in981.0 mb 0.00 in0.0 mm 0.00 in/hr0.0 mm/hr 0.00 in0.0 mm
01:12 AM 63.7°F17.6°C 47.1°F8.4°C 55% 1.3 mph SW2.1 kmh SW 6.5 mph10.5 kmh 28.97 in981.0 mb 0.00 in0.0 mm 0.00 in/hr0.0 mm/hr 0.00 in0.0 mm
01:11 AM 63.9°F17.7°C 47.3°F8.5°C 55% 3.4 mph SW5.5 kmh SW 6.5 mph10.5 kmh 28.96 in980.7 mb 0.00 in0.0 mm 0.00 in/hr0.0 mm/hr 0.00 in0.0 mm
01:10 AM 63.9°F17.7°C 47.3°F8.5°C 55% 2.9 mph SW4.7 kmh SW 6.5 mph10.5 kmh 28.97 in981.0 mb 0.00 in0.0 mm 0.00 in/hr0.0 mm/hr 0.00 in0.0 mm
01:09 AM 63.7°F17.6°C 47.1°F8.4°C 55% 2.9 mph SSW4.7 kmh SSW 6.5 mph10.5 kmh 28.97 in981.0 mb 0.00 in0.0 mm 0.00 in/hr0.0 mm/hr 0.00 in0.0 mm
01:08 AM 64.0°F17.8°C 47.4°F8.6°C 55% 4.3 mph SSW6.9 kmh SSW 6.5 mph10.5 kmh 28.97 in981.0 mb 0.00 in0.0 mm 0.00 in/hr0.0 mm/hr 0.00 in0.0 mm
01:07 AM 64.0°F17.8°C 47.4°F8.6°C 55% 2.9 mph SSW4.7 kmh SSW 6.5 mph10.5 kmh 28.97 in981.0 mb 0.00 in0.0 mm 0.00 in/hr0.0 mm/hr 0.00 in0.0 mm
01:06 AM 64.0°F17.8°C 47.4°F8.6°C 55% 4.3 mph SSW6.9 kmh SSW 6.5 mph10.5 kmh 28.97 in981.0 mb 0.00 in0.0 mm 0.00 in/hr0.0 mm/hr 0.00 in0.0 mm
01:05 AM 64.0°F17.8°C 47.4°F8.6°C 55% 2.9 mph SSW4.7 kmh SSW 6.3 mph10.1 kmh 28.97 in981.0 mb 0.00 in0.0 mm 0.00 in/hr0.0 mm/hr 0.00 in0.0 mm
01:04 AM 64.0°F17.8°C 47.4°F8.6°C 55% 1.8 mph SSW2.9 kmh SSW 6.3 mph10.1 kmh 28.97 in981.0 mb 0.00 in0.0 mm 0.00 in/hr0.0 mm/hr 0.00 in0.0 mm
01:03 AM 64.0°F17.8°C 47.4°F8.6°C 55% 0.4 mph SSW0.6 kmh SSW 6.3 mph10.1 kmh 28.97 in981.0 mb 0.00 in0.0 mm 0.00 in/hr0.0 mm/hr 0.00 in0.0 mm
01:02 AM 64.0°F17.8°C 47.4°F8.6°C 55% 2.2 mph SSW3.5 kmh SSW 6.3 mph10.1 kmh 28.97 in981.0 mb 0.00 in0.0 mm 0.00 in/hr0.0 mm/hr 0.00 in0.0 mm
01:01 AM 64.0°F17.8°C 47.4°F8.6°C 55% 6.3 mph SSW10.1 kmh SSW 6.3 mph10.1 kmh 28.96 in980.7 mb 0.00 in0.0 mm 0.00 in/hr0.0 mm/hr 0.00 in0.0 mm
01:00 AM 64.0°F17.8°C 47.4°F8.6°C 55% Calm Calm 6.5 mph10.5 kmh 28.96 in980.7 mb 0.00 in0.0 mm 0.00 in/hr0.0 mm/hr 0.00 in0.0 mm
12:59 AM 64.0°F17.8°C 47.4°F8.6°C 55% 3.1 mph SSW5.0 kmh SSW 6.5 mph10.5 kmh 28.96 in980.7 mb 0.00 in0.0 mm 0.00 in/hr0.0 mm/hr 0.00 in0.0 mm
12:58 AM 64.0°F17.8°C 47.4°F8.6°C 55% 4.0 mph SSW6.4 kmh SSW 7.2 mph11.6 kmh 28.97 in981.0 mb 0.00 in0.0 mm 0.00 in/hr0.0 mm/hr 0.00 in0.0 mm
12:57 AM 64.0°F17.8°C 47.4°F8.6°C 55% 4.9 mph SSW7.9 kmh SSW 7.2 mph11.6 kmh 28.97 in981.0 mb 0.00 in0.0 mm 0.00 in/hr0.0 mm/hr 0.00 in0.0 mm
12:56 AM 64.0°F17.8°C 47.4°F8.6°C 55% 2.7 mph SSW4.3 kmh SSW 7.2 mph11.6 kmh 28.96 in980.7 mb 0.00 in0.0 mm 0.00 in/hr0.0 mm/hr 0.00 in0.0 mm
12:55 AM 64.0°F17.8°C 47.4°F8.6°C 55% 3.4 mph SSW5.5 kmh SSW 7.2 mph11.6 kmh 28.96 in980.7 mb 0.00 in0.0 mm 0.00 in/hr0.0 mm/hr 0.00 in0.0 mm
12:54 AM 64.0°F17.8°C 47.4°F8.6°C 55% 3.4 mph SSW5.5 kmh SSW 8.7 mph14.0 kmh 28.96 in980.7 mb 0.00 in0.0 mm 0.00 in/hr0.0 mm/hr 0.00 in0.0 mm
12:53 AM 64.2°F17.9°C 47.6°F8.7°C 55% 3.4 mph SSW5.5 kmh SSW 8.7 mph14.0 kmh 28.96 in980.7 mb 0.00 in0.0 mm 0.00 in/hr0.0 mm/hr 0.00 in0.0 mm
12:52 AM 64.2°F17.9°C 47.6°F8.7°C 55% 4.3 mph SSW6.9 kmh SSW 8.7 mph14.0 kmh 28.97 in981.0 mb 0.00 in0.0 mm 0.00 in/hr0.0 mm/hr 0.00 in0.0 mm
12:51 AM 64.2°F17.9°C 47.6°F8.7°C 55% 0.9 mph SSW1.4 kmh SSW 10.7 mph17.2 kmh 28.97 in981.0 mb 0.00 in0.0 mm 0.00 in/hr0.0 mm/hr 0.00 in0.0 mm
12:50 AM 64.2°F17.9°C 47.6°F8.7°C 55% 6.5 mph SSW10.5 kmh SSW 10.7 mph17.2 kmh 28.97 in981.0 mb 0.00 in0.0 mm 0.00 in/hr0.0 mm/hr 0.00 in0.0 mm
12:49 AM 64.2°F17.9°C 47.6°F8.7°C 55% 4.3 mph SSW6.9 kmh SSW 10.7 mph17.2 kmh 28.97 in981.0 mb 0.00 in0.0 mm 0.00 in/hr0.0 mm/hr 0.00 in0.0 mm
12:48 AM 64.2°F17.9°C 47.6°F8.7°C 55% 4.7 mph SSW7.6 kmh SSW 10.7 mph17.2 kmh 28.97 in981.0 mb 0.00 in0.0 mm 0.00 in/hr0.0 mm/hr 0.00 in0.0 mm
12:47 AM 64.2°F17.9°C 47.1°F8.4°C 54% 4.7 mph SSW7.6 kmh SSW 10.7 mph17.2 kmh 28.97 in981.0 mb 0.00 in0.0 mm 0.00 in/hr0.0 mm/hr 0.00 in0.0 mm
12:46 AM 64.2°F17.9°C 47.1°F8.4°C 54% 3.8 mph SSW6.1 kmh SSW 11.0 mph17.7 kmh 28.96 in980.7 mb 0.00 in0.0 mm 0.00 in/hr0.0 mm/hr 0.00 in0.0 mm
12:45 AM 64.2°F17.9°C 47.1°F8.4°C 54% 6.5 mph SSW10.5 kmh SSW 11.0 mph17.7 kmh 28.96 in980.7 mb 0.00 in0.0 mm 0.00 in/hr0.0 mm/hr 0.00 in0.0 mm
12:44 AM 64.2°F17.9°C 47.1°F8.4°C 54% 8.5 mph SSW13.7 kmh SSW 11.0 mph17.7 kmh 28.96 in980.7 mb 0.00 in0.0 mm 0.00 in/hr0.0 mm/hr 0.00 in0.0 mm
12:43 AM 64.2°F17.9°C 47.1°F8.4°C 54% 3.6 mph SSW5.8 kmh SSW 11.0 mph17.7 kmh 28.96 in980.7 mb 0.00 in0.0 mm 0.00 in/hr0.0 mm/hr 0.00 in0.0 mm
12:42 AM 64.2°F17.9°C 47.1°F8.4°C 54% 6.0 mph SSW9.7 kmh SSW 11.0 mph17.7 kmh 28.96 in980.7 mb 0.00 in0.0 mm 0.00 in/hr0.0 mm/hr 0.00 in0.0 mm
12:41 AM 64.2°F17.9°C 47.1°F8.4°C 54% 6.3 mph SSW10.1 kmh SSW 11.0 mph17.7 kmh 28.96 in980.7 mb 0.00 in0.0 mm 0.00 in/hr0.0 mm/hr 0.00 in0.0 mm
12:40 AM 64.2°F17.9°C 47.1°F8.4°C 54% 4.5 mph SSW7.2 kmh SSW 11.0 mph17.7 kmh 28.96 in980.7 mb 0.00 in0.0 mm 0.00 in/hr0.0 mm/hr 0.00 in0.0 mm
12:39 AM 64.2°F17.9°C 47.1°F8.4°C 54% 6.7 mph SSW10.8 kmh SSW 11.0 mph17.7 kmh 28.96 in980.7 mb 0.00 in0.0 mm 0.00 in/hr0.0 mm/hr 0.00 in0.0 mm
12:38 AM 64.2°F17.9°C 47.1°F8.4°C 54% 6.0 mph SSW9.7 kmh SSW 12.3 mph19.8 kmh 28.96 in980.7 mb 0.00 in0.0 mm 0.00 in/hr0.0 mm/hr 0.00 in0.0 mm
12:37 AM 64.2°F17.9°C 47.1°F8.4°C 54% 4.0 mph SSW6.4 kmh SSW 12.3 mph19.8 kmh 28.96 in980.7 mb 0.00 in0.0 mm 0.00 in/hr0.0 mm/hr 0.00 in0.0 mm
12:36 AM 64.2°F17.9°C 47.1°F8.4°C 54% 4.0 mph SSW6.4 kmh SSW 12.3 mph19.8 kmh 28.96 in980.7 mb 0.00 in0.0 mm 0.00 in/hr0.0 mm/hr 0.00 in0.0 mm
12:35 AM 64.2°F17.9°C 47.1°F8.4°C 54% 7.4 mph SSW11.9 kmh SSW 12.3 mph19.8 kmh 28.96 in980.7 mb 0.00 in0.0 mm 0.00 in/hr0.0 mm/hr 0.00 in0.0 mm
12:34 AM 64.2°F17.9°C 47.1°F8.4°C 54% 9.2 mph SSW14.8 kmh SSW 12.3 mph19.8 kmh 28.96 in980.7 mb 0.00 in0.0 mm 0.00 in/hr0.0 mm/hr 0.00 in0.0 mm
12:33 AM 64.4°F18.0°C 47.3°F8.5°C 54% 3.4 mph SSW5.5 kmh SSW 12.3 mph19.8 kmh 28.96 in980.7 mb 0.00 in0.0 mm 0.00 in/hr0.0 mm/hr 0.00 in0.0 mm
12:32 AM 64.4°F18.0°C 47.3°F8.5°C 54% 7.2 mph SSW11.6 kmh SSW 12.3 mph19.8 kmh 28.96 in980.7 mb 0.00 in0.0 mm 0.00 in/hr0.0 mm/hr 0.00 in0.0 mm
12:31 AM 64.4°F18.0°C 47.3°F8.5°C 54% 9.8 mph SSW15.8 kmh SSW 12.3 mph19.8 kmh 28.96 in980.7 mb 0.00 in0.0 mm 0.00 in/hr0.0 mm/hr 0.00 in0.0 mm
12:30 AM 64.4°F18.0°C 47.3°F8.5°C 54% 6.7 mph SSW10.8 kmh SSW 12.3 mph19.8 kmh 28.96 in980.7 mb 0.00 in0.0 mm 0.00 in/hr0.0 mm/hr 0.00 in0.0 mm
12:29 AM 64.6°F18.1°C 47.4°F8.6°C 54% 9.2 mph SSW14.8 kmh SSW 12.3 mph19.8 kmh 28.96 in980.7 mb 0.00 in0.0 mm 0.00 in/hr0.0 mm/hr 0.00 in0.0 mm
12:28 AM 64.4°F18.0°C 47.3°F8.5°C 54% 6.0 mph SSW9.7 kmh SSW 10.5 mph16.9 kmh 28.96 in980.7 mb 0.00 in0.0 mm 0.00 in/hr0.0 mm/hr 0.00 in0.0 mm
12:27 AM 64.4°F18.0°C 47.3°F8.5°C 54% 6.9 mph SSW11.1 kmh SSW 10.7 mph17.2 kmh 28.96 in980.7 mb 0.00 in0.0 mm 0.00 in/hr0.0 mm/hr 0.00 in0.0 mm
12:26 AM 64.6°F18.1°C 47.4°F8.6°C 54% 8.7 mph SSW14.0 kmh SSW 10.7 mph17.2 kmh 28.96 in980.7 mb 0.00 in0.0 mm 0.00 in/hr0.0 mm/hr 0.00 in0.0 mm
12:25 AM 64.6°F18.1°C 47.4°F8.6°C 54% 4.3 mph SSW6.9 kmh SSW 13.0 mph20.9 kmh 28.96 in980.7 mb 0.00 in0.0 mm 0.00 in/hr0.0 mm/hr 0.00 in0.0 mm
12:24 AM 64.6°F18.1°C 47.4°F8.6°C 54% 3.8 mph SSW6.1 kmh SSW 13.0 mph20.9 kmh 28.96 in980.7 mb 0.00 in0.0 mm 0.00 in/hr0.0 mm/hr 0.00 in0.0 mm
12:23 AM 64.6°F18.1°C 47.4°F8.6°C 54% 2.2 mph SSW3.5 kmh SSW 13.0 mph20.9 kmh 28.96 in980.7 mb 0.00 in0.0 mm 0.00 in/hr0.0 mm/hr 0.00 in0.0 mm
12:22 AM 64.6°F18.1°C 47.4°F8.6°C 54% 10.5 mph SSW16.9 kmh SSW 13.0 mph20.9 kmh 28.96 in980.7 mb 0.00 in0.0 mm 0.00 in/hr0.0 mm/hr 0.00 in0.0 mm
12:21 AM 64.6°F18.1°C 47.4°F8.6°C 54% 6.7 mph SSW10.8 kmh SSW 13.0 mph20.9 kmh 28.96 in980.7 mb 0.00 in0.0 mm 0.00 in/hr0.0 mm/hr 0.00 in0.0 mm
12:20 AM 64.6°F18.1°C 47.4°F8.6°C 54% 6.7 mph SSW10.8 kmh SSW 13.0 mph20.9 kmh 28.96 in980.7 mb 0.00 in0.0 mm 0.00 in/hr0.0 mm/hr 0.00 in0.0 mm
12:19 AM 64.6°F18.1°C 47.4°F8.6°C 54% 6.3 mph SSW10.1 kmh SSW 13.0 mph20.9 kmh 28.96 in980.7 mb 0.00 in0.0 mm 0.00 in/hr0.0 mm/hr 0.00 in0.0 mm
12:18 AM 64.6°F18.1°C 47.4°F8.6°C 54% 4.9 mph SSW7.9 kmh SSW 13.0 mph20.9 kmh 28.96 in980.7 mb 0.00 in0.0 mm 0.00 in/hr0.0 mm/hr 0.00 in0.0 mm
12:17 AM 64.6°F18.1°C 47.4°F8.6°C 54% 6.5 mph SSW10.5 kmh SSW 13.0 mph20.9 kmh 28.96 in980.7 mb 0.00 in0.0 mm 0.00 in/hr0.0 mm/hr 0.00 in0.0 mm
12:16 AM 64.6°F18.1°C 47.4°F8.6°C 54% 7.2 mph SSW11.6 kmh SSW 13.0 mph20.9 kmh 28.96 in980.7 mb 0.00 in0.0 mm 0.00 in/hr0.0 mm/hr 0.00 in0.0 mm
12:15 AM 64.6°F18.1°C 47.4°F8.6°C 54% 11.0 mph SSW17.7 kmh SSW 12.1 mph19.5 kmh 28.96 in980.7 mb 0.00 in0.0 mm 0.00 in/hr0.0 mm/hr 0.00 in0.0 mm
12:14 AM 64.6°F18.1°C 47.4°F8.6°C 54% 8.3 mph SSW13.4 kmh SSW 12.1 mph19.5 kmh 28.96 in980.7 mb 0.00 in0.0 mm 0.00 in/hr0.0 mm/hr 0.00 in0.0 mm
12:13 AM 64.6°F18.1°C 47.4°F8.6°C 54% 7.6 mph SSW12.2 kmh SSW 12.1 mph19.5 kmh 28.96 in980.7 mb 0.00 in0.0 mm 0.00 in/hr0.0 mm/hr 0.00 in0.0 mm
12:12 AM 64.6°F18.1°C 47.4°F8.6°C 54% 5.1 mph SSW8.2 kmh SSW 12.1 mph19.5 kmh 28.96 in980.7 mb 0.00 in0.0 mm 0.00 in/hr0.0 mm/hr 0.00 in0.0 mm
12:11 AM 64.6°F18.1°C 47.4°F8.6°C 54% 8.1 mph SSW13.0 kmh SSW 12.1 mph19.5 kmh 28.96 in980.7 mb 0.00 in0.0 mm 0.00 in/hr0.0 mm/hr 0.00 in0.0 mm
12:10 AM 64.6°F18.1°C 47.4°F8.6°C 54% 9.4 mph SSW15.1 kmh SSW 12.1 mph19.5 kmh 28.96 in980.7 mb 0.00 in0.0 mm 0.00 in/hr0.0 mm/hr 0.00 in0.0 mm
12:09 AM 64.6°F18.1°C 47.4°F8.6°C 54% 7.4 mph SSW11.9 kmh SSW 12.1 mph19.5 kmh 28.96 in980.7 mb 0.00 in0.0 mm 0.00 in/hr0.0 mm/hr 0.00 in0.0 mm
12:08 AM 64.6°F18.1°C 47.4°F8.6°C 54% 8.9 mph SSW14.3 kmh SSW 12.1 mph19.5 kmh 28.96 in980.7 mb 0.00 in0.0 mm 0.00 in/hr0.0 mm/hr 0.00 in0.0 mm
12:07 AM 64.6°F18.1°C 47.4°F8.6°C 54% 8.3 mph SSW13.4 kmh SSW 12.1 mph19.5 kmh 28.96 in980.7 mb 0.00 in0.0 mm 0.00 in/hr0.0 mm/hr 0.00 in0.0 mm
12:06 AM 64.6°F18.1°C 47.4°F8.6°C 54% 7.8 mph SSW12.6 kmh SSW 12.1 mph19.5 kmh 28.96 in980.7 mb 0.00 in0.0 mm 0.00 in/hr0.0 mm/hr 0.00 in0.0 mm
12:05 AM 64.6°F18.1°C 47.4°F8.6°C 54% 10.5 mph SSW16.9 kmh SSW 10.7 mph17.2 kmh 28.95 in980.4 mb 0.00 in0.0 mm 0.00 in/hr0.0 mm/hr 0.00 in0.0 mm
12:04 AM 64.6°F18.1°C 47.4°F8.6°C 54% 8.7 mph SSW14.0 kmh SSW 10.7 mph17.2 kmh 28.96 in980.7 mb 0.00 in0.0 mm 0.00 in/hr0.0 mm/hr 0.00 in0.0 mm
12:03 AM 65.7°F18.7°C 47.3°F8.5°C 53% 0.7 mph SSW1.1 kmh SSW 10.7 mph17.2 kmh 28.96 in980.7 mb 0.00 in0.0 mm 0.00 in/hr0.0 mm/hr 0.00 in0.0 mm
12:01 AM 64.6°F18.1°C 47.4°F8.6°C 54% 10.7 mph SSW17.2 kmh SSW 12.1 mph19.5 kmh 28.96 in980.7 mb 0.00 in0.0 mm 0.00 in/hr0.0 mm/hr 0.00 in0.0 mm
12:00 AM 64.6°F18.1°C 47.4°F8.6°C 54% 10.7 mph SSW17.2 kmh SSW 12.1 mph19.5 kmh 28.96 in980.7 mb 0.00 in0.0 mm 0.00 in/hr0.0 mm/hr 0.00 in0.0 mm